<?xml version="1.0" encoding="UTF-8" standalone="no" ?>
<gpx xmlns="http://www.topografix.com/GPX/1/1" xmlns:xsi="http://www.w3.org/2001/XMLSchema-instance" xsi:schemaLocation="http://www.topografix.com/GPX/1/1 http://www.topografix.com/GPX/1/1/gpx.xsd" version="1.1" creator="VisuGPX - https://www.visugpx.com">
  <metadata>
    <name>Singles sur Lagnes6</name>
    <desc><![CDATA[Quelques singles joueurs à Lagnes]]></desc>
  </metadata>
  <trk>
    <name><![CDATA[Lagnes frein ar HS]]></name>
    <trkseg>
      <trkpt lat="43.89272" lon="5.11432">
        <ele>117.3</ele>
        <time>2015-01-02T09:22:06Z</time>
      </trkpt>
      <trkpt lat="43.89272" lon="5.11432">
        <ele>173</ele>
        <time>2015-01-02T09:22:07Z</time>
      </trkpt>
      <trkpt lat="43.89286" lon="5.1145">
        <ele>174</ele>
        <time>2015-01-02T09:22:14Z</time>
      </trkpt>
      <trkpt lat="43.89311" lon="5.11463">
        <ele>178</ele>
        <time>2015-01-02T09:22:23Z</time>
      </trkpt>
      <trkpt lat="43.89329" lon="5.11472">
        <ele>182</ele>
        <time>2015-01-02T09:22:29Z</time>
      </trkpt>
      <trkpt lat="43.89344" lon="5.1149">
        <ele>173</ele>
        <time>2015-01-02T09:22:37Z</time>
      </trkpt>
      <trkpt lat="43.89342" lon="5.11506">
        <ele>178</ele>
        <time>2015-01-02T09:22:43Z</time>
      </trkpt>
      <trkpt lat="43.89348" lon="5.11529">
        <ele>184</ele>
        <time>2015-01-02T09:22:56Z</time>
      </trkpt>
      <trkpt lat="43.89321" lon="5.11551">
        <ele>183</ele>
        <time>2015-01-02T09:23:12Z</time>
      </trkpt>
      <trkpt lat="43.89309" lon="5.11555">
        <ele>176</ele>
        <time>2015-01-02T09:23:17Z</time>
      </trkpt>
      <trkpt lat="43.89288" lon="5.11564">
        <ele>166</ele>
        <time>2015-01-02T09:23:28Z</time>
      </trkpt>
      <trkpt lat="43.89272" lon="5.11566">
        <ele>176</ele>
        <time>2015-01-02T09:23:40Z</time>
      </trkpt>
      <trkpt lat="43.89252" lon="5.11561">
        <ele>179</ele>
        <time>2015-01-02T09:23:51Z</time>
      </trkpt>
      <trkpt lat="43.89235" lon="5.1156">
        <ele>177</ele>
        <time>2015-01-02T09:23:58Z</time>
      </trkpt>
      <trkpt lat="43.8922" lon="5.11568">
        <ele>178</ele>
        <time>2015-01-02T09:24:06Z</time>
      </trkpt>
      <trkpt lat="43.89208" lon="5.1158">
        <ele>181</ele>
        <time>2015-01-02T09:24:18Z</time>
      </trkpt>
      <trkpt lat="43.8917" lon="5.11531">
        <ele>176</ele>
        <time>2015-01-02T09:24:36Z</time>
      </trkpt>
      <trkpt lat="43.89157" lon="5.11514">
        <ele>173</ele>
        <time>2015-01-02T09:24:42Z</time>
      </trkpt>
      <trkpt lat="43.89151" lon="5.11496">
        <ele>174</ele>
        <time>2015-01-02T09:24:54Z</time>
      </trkpt>
      <trkpt lat="43.89142" lon="5.11479">
        <ele>169</ele>
        <time>2015-01-02T09:25:13Z</time>
      </trkpt>
      <trkpt lat="43.89142" lon="5.11479">
        <ele>169</ele>
        <time>2015-01-02T09:25:21Z</time>
      </trkpt>
      <trkpt lat="43.89142" lon="5.11479">
        <ele>121</ele>
        <time>2015-01-02T09:25:21Z</time>
      </trkpt>
      <trkpt lat="43.89135" lon="5.11494">
        <ele>171</ele>
        <time>2015-01-02T09:26:48Z</time>
      </trkpt>
      <trkpt lat="43.89135" lon="5.11494">
        <ele>120.9</ele>
        <time>2015-01-02T09:26:48Z</time>
      </trkpt>
      <trkpt lat="43.89105" lon="5.11506">
        <ele>170</ele>
        <time>2015-01-02T09:28:04Z</time>
      </trkpt>
      <trkpt lat="43.89095" lon="5.1152">
        <ele>173</ele>
        <time>2015-01-02T09:28:14Z</time>
      </trkpt>
      <trkpt lat="43.89099" lon="5.11544">
        <ele>180</ele>
        <time>2015-01-02T09:28:28Z</time>
      </trkpt>
      <trkpt lat="43.89102" lon="5.11558">
        <ele>182</ele>
        <time>2015-01-02T09:28:35Z</time>
      </trkpt>
      <trkpt lat="43.89097" lon="5.11596">
        <ele>176</ele>
        <time>2015-01-02T09:28:48Z</time>
      </trkpt>
      <trkpt lat="43.89088" lon="5.11626">
        <ele>175</ele>
        <time>2015-01-02T09:29:01Z</time>
      </trkpt>
      <trkpt lat="43.89079" lon="5.11646">
        <ele>175</ele>
        <time>2015-01-02T09:29:10Z</time>
      </trkpt>
      <trkpt lat="43.89069" lon="5.11655">
        <ele>183</ele>
        <time>2015-01-02T09:29:21Z</time>
      </trkpt>
      <trkpt lat="43.89058" lon="5.1167">
        <ele>190</ele>
        <time>2015-01-02T09:29:35Z</time>
      </trkpt>
      <trkpt lat="43.89032" lon="5.11685">
        <ele>191</ele>
        <time>2015-01-02T09:29:53Z</time>
      </trkpt>
      <trkpt lat="43.89022" lon="5.11685">
        <ele>188</ele>
        <time>2015-01-02T09:30:01Z</time>
      </trkpt>
      <trkpt lat="43.89009" lon="5.11693">
        <ele>190</ele>
        <time>2015-01-02T09:30:19Z</time>
      </trkpt>
      <trkpt lat="43.88987" lon="5.11716">
        <ele>187</ele>
        <time>2015-01-02T09:30:35Z</time>
      </trkpt>
      <trkpt lat="43.88987" lon="5.1174">
        <ele>194</ele>
        <time>2015-01-02T09:30:51Z</time>
      </trkpt>
      <trkpt lat="43.8899" lon="5.11763">
        <ele>197</ele>
        <time>2015-01-02T09:31:07Z</time>
      </trkpt>
      <trkpt lat="43.88992" lon="5.11793">
        <ele>198</ele>
        <time>2015-01-02T09:31:25Z</time>
      </trkpt>
      <trkpt lat="43.88993" lon="5.11821">
        <ele>200</ele>
        <time>2015-01-02T09:31:39Z</time>
      </trkpt>
      <trkpt lat="43.88993" lon="5.11821">
        <ele>200</ele>
        <time>2015-01-02T09:31:46Z</time>
      </trkpt>
      <trkpt lat="43.88993" lon="5.11821">
        <ele>145.6</ele>
        <time>2015-01-02T09:31:46Z</time>
      </trkpt>
      <trkpt lat="43.88988" lon="5.11828">
        <ele>204</ele>
        <time>2015-01-02T09:31:53Z</time>
      </trkpt>
      <trkpt lat="43.88988" lon="5.11828">
        <ele>147</ele>
        <time>2015-01-02T09:31:53Z</time>
      </trkpt>
      <trkpt lat="43.88976" lon="5.1183">
        <ele>214</ele>
        <time>2015-01-02T09:32:06Z</time>
      </trkpt>
      <trkpt lat="43.88955" lon="5.11816">
        <ele>208</ele>
        <time>2015-01-02T09:32:24Z</time>
      </trkpt>
      <trkpt lat="43.88949" lon="5.1179">
        <ele>210</ele>
        <time>2015-01-02T09:32:35Z</time>
      </trkpt>
      <trkpt lat="43.8894" lon="5.11765">
        <ele>209</ele>
        <time>2015-01-02T09:32:41Z</time>
      </trkpt>
      <trkpt lat="43.88926" lon="5.11739">
        <ele>208</ele>
        <time>2015-01-02T09:32:47Z</time>
      </trkpt>
      <trkpt lat="43.88923" lon="5.11725">
        <ele>209</ele>
        <time>2015-01-02T09:32:54Z</time>
      </trkpt>
      <trkpt lat="43.88911" lon="5.11703">
        <ele>209</ele>
        <time>2015-01-02T09:33:07Z</time>
      </trkpt>
      <trkpt lat="43.889" lon="5.11674">
        <ele>209</ele>
        <time>2015-01-02T09:33:17Z</time>
      </trkpt>
      <trkpt lat="43.88896" lon="5.11664">
        <ele>207</ele>
        <time>2015-01-02T09:33:22Z</time>
      </trkpt>
      <trkpt lat="43.88876" lon="5.11657">
        <ele>206</ele>
        <time>2015-01-02T09:33:37Z</time>
      </trkpt>
      <trkpt lat="43.88862" lon="5.11661">
        <ele>209</ele>
        <time>2015-01-02T09:33:46Z</time>
      </trkpt>
      <trkpt lat="43.88839" lon="5.11658">
        <ele>210</ele>
        <time>2015-01-02T09:33:59Z</time>
      </trkpt>
      <trkpt lat="43.88828" lon="5.11663">
        <ele>210</ele>
        <time>2015-01-02T09:34:05Z</time>
      </trkpt>
      <trkpt lat="43.88806" lon="5.11663">
        <ele>204</ele>
        <time>2015-01-02T09:34:15Z</time>
      </trkpt>
      <trkpt lat="43.88796" lon="5.11662">
        <ele>192</ele>
        <time>2015-01-02T09:34:20Z</time>
      </trkpt>
      <trkpt lat="43.88785" lon="5.11686">
        <ele>206</ele>
        <time>2015-01-02T09:34:32Z</time>
      </trkpt>
      <trkpt lat="43.88773" lon="5.11712">
        <ele>205</ele>
        <time>2015-01-02T09:34:45Z</time>
      </trkpt>
      <trkpt lat="43.8876" lon="5.11728">
        <ele>210</ele>
        <time>2015-01-02T09:34:57Z</time>
      </trkpt>
      <trkpt lat="43.88753" lon="5.11742">
        <ele>211</ele>
        <time>2015-01-02T09:35:07Z</time>
      </trkpt>
      <trkpt lat="43.88735" lon="5.11765">
        <ele>217</ele>
        <time>2015-01-02T09:35:25Z</time>
      </trkpt>
      <trkpt lat="43.88727" lon="5.11771">
        <ele>205</ele>
        <time>2015-01-02T09:35:36Z</time>
      </trkpt>
      <trkpt lat="43.88703" lon="5.11795">
        <ele>220</ele>
        <time>2015-01-02T09:36:24Z</time>
      </trkpt>
      <trkpt lat="43.88686" lon="5.11827">
        <ele>223</ele>
        <time>2015-01-02T09:37:12Z</time>
      </trkpt>
      <trkpt lat="43.88687" lon="5.11846">
        <ele>226</ele>
        <time>2015-01-02T09:37:26Z</time>
      </trkpt>
      <trkpt lat="43.88693" lon="5.11875">
        <ele>222</ele>
        <time>2015-01-02T09:37:39Z</time>
      </trkpt>
      <trkpt lat="43.8869" lon="5.11893">
        <ele>231</ele>
        <time>2015-01-02T09:37:46Z</time>
      </trkpt>
      <trkpt lat="43.88686" lon="5.11918">
        <ele>220</ele>
        <time>2015-01-02T09:37:58Z</time>
      </trkpt>
      <trkpt lat="43.88687" lon="5.11923">
        <ele>231</ele>
        <time>2015-01-02T09:38:02Z</time>
      </trkpt>
      <trkpt lat="43.88687" lon="5.11923">
        <ele>185.6</ele>
        <time>2015-01-02T09:38:10Z</time>
      </trkpt>
      <trkpt lat="43.88695" lon="5.11901">
        <ele>230</ele>
        <time>2015-01-02T09:38:29Z</time>
      </trkpt>
      <trkpt lat="43.88695" lon="5.11901">
        <ele>184.9</ele>
        <time>2015-01-02T09:38:29Z</time>
      </trkpt>
      <trkpt lat="43.88699" lon="5.11895">
        <ele>231</ele>
        <time>2015-01-02T09:38:32Z</time>
      </trkpt>
      <trkpt lat="43.88699" lon="5.11895">
        <ele>184.8</ele>
        <time>2015-01-02T09:38:38Z</time>
      </trkpt>
      <trkpt lat="43.88693" lon="5.11912">
        <ele>229</ele>
        <time>2015-01-02T09:38:50Z</time>
      </trkpt>
      <trkpt lat="43.88693" lon="5.11912">
        <ele>185.5</ele>
        <time>2015-01-02T09:38:50Z</time>
      </trkpt>
      <trkpt lat="43.88685" lon="5.11908">
        <ele>223</ele>
        <time>2015-01-02T09:39:04Z</time>
      </trkpt>
      <trkpt lat="43.88689" lon="5.11865">
        <ele>216</ele>
        <time>2015-01-02T09:39:14Z</time>
      </trkpt>
      <trkpt lat="43.88684" lon="5.11855">
        <ele>226</ele>
        <time>2015-01-02T09:39:18Z</time>
      </trkpt>
      <trkpt lat="43.88684" lon="5.11855">
        <ele>180.9</ele>
        <time>2015-01-02T09:39:23Z</time>
      </trkpt>
      <trkpt lat="43.88675" lon="5.11836">
        <ele>218</ele>
        <time>2015-01-02T09:39:42Z</time>
      </trkpt>
      <trkpt lat="43.88675" lon="5.11836">
        <ele>179.4</ele>
        <time>2015-01-02T09:39:42Z</time>
      </trkpt>
      <trkpt lat="43.88652" lon="5.11845">
        <ele>227</ele>
        <time>2015-01-02T09:39:58Z</time>
      </trkpt>
      <trkpt lat="43.88645" lon="5.11853">
        <ele>223</ele>
        <time>2015-01-02T09:40:05Z</time>
      </trkpt>
      <trkpt lat="43.8862" lon="5.11879">
        <ele>224</ele>
        <time>2015-01-02T09:40:20Z</time>
      </trkpt>
      <trkpt lat="43.8862" lon="5.11879">
        <ele>172.3</ele>
        <time>2015-01-02T09:40:27Z</time>
      </trkpt>
      <trkpt lat="43.88618" lon="5.11892">
        <ele>208</ele>
        <time>2015-01-02T09:40:32Z</time>
      </trkpt>
      <trkpt lat="43.88618" lon="5.11892">
        <ele>172.5</ele>
        <time>2015-01-02T09:40:32Z</time>
      </trkpt>
      <trkpt lat="43.88609" lon="5.11906">
        <ele>208</ele>
        <time>2015-01-02T09:40:40Z</time>
      </trkpt>
      <trkpt lat="43.88589" lon="5.11919">
        <ele>223</ele>
        <time>2015-01-02T09:40:50Z</time>
      </trkpt>
      <trkpt lat="43.88561" lon="5.11912">
        <ele>228</ele>
        <time>2015-01-02T09:41:01Z</time>
      </trkpt>
      <trkpt lat="43.88536" lon="5.11913">
        <ele>216</ele>
        <time>2015-01-02T09:41:07Z</time>
      </trkpt>
      <trkpt lat="43.88526" lon="5.11913">
        <ele>213</ele>
        <time>2015-01-02T09:41:15Z</time>
      </trkpt>
      <trkpt lat="43.88505" lon="5.11883">
        <ele>217</ele>
        <time>2015-01-02T09:41:28Z</time>
      </trkpt>
      <trkpt lat="43.88503" lon="5.1188">
        <ele>219</ele>
        <time>2015-01-02T09:41:31Z</time>
      </trkpt>
      <trkpt lat="43.88503" lon="5.1188">
        <ele>169.9</ele>
        <time>2015-01-02T09:41:37Z</time>
      </trkpt>
      <trkpt lat="43.88503" lon="5.1188">
        <ele>169.9</ele>
        <time>2015-01-02T09:43:19Z</time>
      </trkpt>
      <trkpt lat="43.88498" lon="5.11859">
        <ele>217</ele>
        <time>2015-01-02T09:43:19Z</time>
      </trkpt>
      <trkpt lat="43.88496" lon="5.11843">
        <ele>217</ele>
        <time>2015-01-02T09:43:22Z</time>
      </trkpt>
      <trkpt lat="43.8849" lon="5.11824">
        <ele>212</ele>
        <time>2015-01-02T09:43:25Z</time>
      </trkpt>
      <trkpt lat="43.88476" lon="5.11806">
        <ele>214</ele>
        <time>2015-01-02T09:43:31Z</time>
      </trkpt>
      <trkpt lat="43.88456" lon="5.11797">
        <ele>212</ele>
        <time>2015-01-02T09:43:39Z</time>
      </trkpt>
      <trkpt lat="43.88452" lon="5.11799">
        <ele>202</ele>
        <time>2015-01-02T09:43:45Z</time>
      </trkpt>
      <trkpt lat="43.88452" lon="5.11799">
        <ele>161.5</ele>
        <time>2015-01-02T09:43:50Z</time>
      </trkpt>
      <trkpt lat="43.88452" lon="5.11799">
        <ele>161.5</ele>
        <time>2015-01-02T09:48:27Z</time>
      </trkpt>
      <trkpt lat="43.88491" lon="5.11828">
        <ele>213</ele>
        <time>2015-01-02T09:48:39Z</time>
      </trkpt>
      <trkpt lat="43.88495" lon="5.11849">
        <ele>216</ele>
        <time>2015-01-02T09:48:50Z</time>
      </trkpt>
      <trkpt lat="43.88499" lon="5.11875">
        <ele>217</ele>
        <time>2015-01-02T09:49:02Z</time>
      </trkpt>
      <trkpt lat="43.8851" lon="5.11897">
        <ele>220</ele>
        <time>2015-01-02T09:49:14Z</time>
      </trkpt>
      <trkpt lat="43.8852" lon="5.11909">
        <ele>220</ele>
        <time>2015-01-02T09:49:23Z</time>
      </trkpt>
      <trkpt lat="43.88535" lon="5.11928">
        <ele>221</ele>
        <time>2015-01-02T09:49:35Z</time>
      </trkpt>
      <trkpt lat="43.88545" lon="5.11944">
        <ele>226</ele>
        <time>2015-01-02T09:49:49Z</time>
      </trkpt>
      <trkpt lat="43.88559" lon="5.11961">
        <ele>229</ele>
        <time>2015-01-02T09:50:00Z</time>
      </trkpt>
      <trkpt lat="43.88566" lon="5.11973">
        <ele>230</ele>
        <time>2015-01-02T09:50:07Z</time>
      </trkpt>
      <trkpt lat="43.88564" lon="5.11996">
        <ele>232</ele>
        <time>2015-01-02T09:50:21Z</time>
      </trkpt>
      <trkpt lat="43.88569" lon="5.12026">
        <ele>237</ele>
        <time>2015-01-02T09:50:36Z</time>
      </trkpt>
      <trkpt lat="43.8858" lon="5.12049">
        <ele>237</ele>
        <time>2015-01-02T09:50:51Z</time>
      </trkpt>
      <trkpt lat="43.88589" lon="5.12071">
        <ele>241</ele>
        <time>2015-01-02T09:51:03Z</time>
      </trkpt>
      <trkpt lat="43.88598" lon="5.12097">
        <ele>241</ele>
        <time>2015-01-02T09:51:16Z</time>
      </trkpt>
      <trkpt lat="43.88606" lon="5.12121">
        <ele>245</ele>
        <time>2015-01-02T09:51:30Z</time>
      </trkpt>
      <trkpt lat="43.88621" lon="5.12155">
        <ele>246</ele>
        <time>2015-01-02T09:51:47Z</time>
      </trkpt>
      <trkpt lat="43.88627" lon="5.1218">
        <ele>244</ele>
        <time>2015-01-02T09:52:01Z</time>
      </trkpt>
      <trkpt lat="43.88626" lon="5.1221">
        <ele>244</ele>
        <time>2015-01-02T09:52:16Z</time>
      </trkpt>
      <trkpt lat="43.88627" lon="5.12216">
        <ele>245</ele>
        <time>2015-01-02T09:52:20Z</time>
      </trkpt>
      <trkpt lat="43.88627" lon="5.12216">
        <ele>195.3</ele>
        <time>2015-01-02T09:52:28Z</time>
      </trkpt>
      <trkpt lat="43.88627" lon="5.12216">
        <ele>195.3</ele>
        <time>2015-01-02T09:54:58Z</time>
      </trkpt>
      <trkpt lat="43.88636" lon="5.12235">
        <ele>244</ele>
        <time>2015-01-02T09:54:58Z</time>
      </trkpt>
      <trkpt lat="43.88648" lon="5.12253">
        <ele>243</ele>
        <time>2015-01-02T09:55:04Z</time>
      </trkpt>
      <trkpt lat="43.88665" lon="5.12272">
        <ele>245</ele>
        <time>2015-01-02T09:55:11Z</time>
      </trkpt>
      <trkpt lat="43.88683" lon="5.12289">
        <ele>240</ele>
        <time>2015-01-02T09:55:17Z</time>
      </trkpt>
      <trkpt lat="43.88705" lon="5.12312">
        <ele>240</ele>
        <time>2015-01-02T09:55:24Z</time>
      </trkpt>
      <trkpt lat="43.88717" lon="5.12334">
        <ele>241</ele>
        <time>2015-01-02T09:55:29Z</time>
      </trkpt>
      <trkpt lat="43.88727" lon="5.12355">
        <ele>241</ele>
        <time>2015-01-02T09:55:34Z</time>
      </trkpt>
      <trkpt lat="43.88731" lon="5.12367">
        <ele>242</ele>
        <time>2015-01-02T09:55:37Z</time>
      </trkpt>
      <trkpt lat="43.88736" lon="5.12386">
        <ele>244</ele>
        <time>2015-01-02T09:55:42Z</time>
      </trkpt>
      <trkpt lat="43.88746" lon="5.12415">
        <ele>244</ele>
        <time>2015-01-02T09:55:51Z</time>
      </trkpt>
      <trkpt lat="43.88749" lon="5.12435">
        <ele>246</ele>
        <time>2015-01-02T09:55:56Z</time>
      </trkpt>
      <trkpt lat="43.88757" lon="5.12461">
        <ele>246</ele>
        <time>2015-01-02T09:56:03Z</time>
      </trkpt>
      <trkpt lat="43.88769" lon="5.12489">
        <ele>247</ele>
        <time>2015-01-02T09:56:12Z</time>
      </trkpt>
      <trkpt lat="43.88788" lon="5.12501">
        <ele>245</ele>
        <time>2015-01-02T09:56:20Z</time>
      </trkpt>
      <trkpt lat="43.888" lon="5.12513">
        <ele>246</ele>
        <time>2015-01-02T09:56:26Z</time>
      </trkpt>
      <trkpt lat="43.8881" lon="5.12527">
        <ele>249</ele>
        <time>2015-01-02T09:56:32Z</time>
      </trkpt>
      <trkpt lat="43.88814" lon="5.12537">
        <ele>250</ele>
        <time>2015-01-02T09:56:35Z</time>
      </trkpt>
      <trkpt lat="43.88816" lon="5.12563">
        <ele>248</ele>
        <time>2015-01-02T09:56:43Z</time>
      </trkpt>
      <trkpt lat="43.88817" lon="5.1257">
        <ele>248</ele>
        <time>2015-01-02T09:56:46Z</time>
      </trkpt>
      <trkpt lat="43.88817" lon="5.1257">
        <ele>200.5</ele>
        <time>2015-01-02T09:56:52Z</time>
      </trkpt>
      <trkpt lat="43.88817" lon="5.1257">
        <ele>200.5</ele>
        <time>2015-01-02T09:56:56Z</time>
      </trkpt>
      <trkpt lat="43.88817" lon="5.12583">
        <ele>247</ele>
        <time>2015-01-02T09:56:56Z</time>
      </trkpt>
      <trkpt lat="43.88817" lon="5.12583">
        <ele>247</ele>
        <time>2015-01-02T09:57:04Z</time>
      </trkpt>
      <trkpt lat="43.88817" lon="5.12583">
        <ele>199.9</ele>
        <time>2015-01-02T09:57:04Z</time>
      </trkpt>
      <trkpt lat="43.88817" lon="5.12583">
        <ele>199.9</ele>
        <time>2015-01-02T09:57:22Z</time>
      </trkpt>
      <trkpt lat="43.88836" lon="5.12579">
        <ele>250</ele>
        <time>2015-01-02T09:57:22Z</time>
      </trkpt>
      <trkpt lat="43.88844" lon="5.12593">
        <ele>253</ele>
        <time>2015-01-02T09:57:27Z</time>
      </trkpt>
      <trkpt lat="43.88851" lon="5.12607">
        <ele>254</ele>
        <time>2015-01-02T09:57:32Z</time>
      </trkpt>
      <trkpt lat="43.88865" lon="5.12637">
        <ele>251</ele>
        <time>2015-01-02T09:57:41Z</time>
      </trkpt>
      <trkpt lat="43.88878" lon="5.12665">
        <ele>254</ele>
        <time>2015-01-02T09:57:49Z</time>
      </trkpt>
      <trkpt lat="43.88888" lon="5.12689">
        <ele>254</ele>
        <time>2015-01-02T09:57:57Z</time>
      </trkpt>
      <trkpt lat="43.88891" lon="5.12707">
        <ele>255</ele>
        <time>2015-01-02T09:58:11Z</time>
      </trkpt>
      <trkpt lat="43.88891" lon="5.12707">
        <ele>255</ele>
        <time>2015-01-02T09:58:18Z</time>
      </trkpt>
      <trkpt lat="43.88891" lon="5.12707">
        <ele>203.7</ele>
        <time>2015-01-02T09:58:19Z</time>
      </trkpt>
      <trkpt lat="43.88891" lon="5.12707">
        <ele>203.7</ele>
        <time>2015-01-02T09:58:46Z</time>
      </trkpt>
      <trkpt lat="43.88898" lon="5.12726">
        <ele>255</ele>
        <time>2015-01-02T09:58:46Z</time>
      </trkpt>
      <trkpt lat="43.88905" lon="5.12755">
        <ele>254</ele>
        <time>2015-01-02T09:58:53Z</time>
      </trkpt>
      <trkpt lat="43.88908" lon="5.12775">
        <ele>254</ele>
        <time>2015-01-02T09:58:57Z</time>
      </trkpt>
      <trkpt lat="43.88914" lon="5.12801">
        <ele>252</ele>
        <time>2015-01-02T09:59:03Z</time>
      </trkpt>
      <trkpt lat="43.88919" lon="5.12818">
        <ele>252</ele>
        <time>2015-01-02T09:59:07Z</time>
      </trkpt>
      <trkpt lat="43.88928" lon="5.1285">
        <ele>253</ele>
        <time>2015-01-02T09:59:14Z</time>
      </trkpt>
      <trkpt lat="43.88933" lon="5.12876">
        <ele>254</ele>
        <time>2015-01-02T09:59:21Z</time>
      </trkpt>
      <trkpt lat="43.88918" lon="5.12895">
        <ele>254</ele>
        <time>2015-01-02T09:59:27Z</time>
      </trkpt>
      <trkpt lat="43.88899" lon="5.12914">
        <ele>253</ele>
        <time>2015-01-02T09:59:32Z</time>
      </trkpt>
      <trkpt lat="43.88874" lon="5.12929">
        <ele>252</ele>
        <time>2015-01-02T09:59:39Z</time>
      </trkpt>
      <trkpt lat="43.88856" lon="5.1293">
        <ele>253</ele>
        <time>2015-01-02T09:59:47Z</time>
      </trkpt>
      <trkpt lat="43.88855" lon="5.12932">
        <ele>253</ele>
        <time>2015-01-02T09:59:49Z</time>
      </trkpt>
      <trkpt lat="43.88855" lon="5.12932">
        <ele>205.2</ele>
        <time>2015-01-02T09:59:56Z</time>
      </trkpt>
      <trkpt lat="43.88855" lon="5.12932">
        <ele>205.2</ele>
        <time>2015-01-02T10:00:05Z</time>
      </trkpt>
      <trkpt lat="43.88843" lon="5.12922">
        <ele>255</ele>
        <time>2015-01-02T10:00:05Z</time>
      </trkpt>
      <trkpt lat="43.88825" lon="5.12907">
        <ele>257</ele>
        <time>2015-01-02T10:00:11Z</time>
      </trkpt>
      <trkpt lat="43.88787" lon="5.1289">
        <ele>253</ele>
        <time>2015-01-02T10:00:19Z</time>
      </trkpt>
      <trkpt lat="43.88777" lon="5.12874">
        <ele>254</ele>
        <time>2015-01-02T10:00:25Z</time>
      </trkpt>
      <trkpt lat="43.88766" lon="5.1286">
        <ele>256</ele>
        <time>2015-01-02T10:00:30Z</time>
      </trkpt>
      <trkpt lat="43.88756" lon="5.1285">
        <ele>257</ele>
        <time>2015-01-02T10:00:36Z</time>
      </trkpt>
      <trkpt lat="43.88747" lon="5.12804">
        <ele>254</ele>
        <time>2015-01-02T10:00:46Z</time>
      </trkpt>
      <trkpt lat="43.88739" lon="5.12768">
        <ele>249</ele>
        <time>2015-01-02T10:00:53Z</time>
      </trkpt>
      <trkpt lat="43.88734" lon="5.12732">
        <ele>248</ele>
        <time>2015-01-02T10:01:00Z</time>
      </trkpt>
      <trkpt lat="43.88717" lon="5.12728">
        <ele>249</ele>
        <time>2015-01-02T10:01:06Z</time>
      </trkpt>
      <trkpt lat="43.88691" lon="5.12731">
        <ele>250</ele>
        <time>2015-01-02T10:01:14Z</time>
      </trkpt>
      <trkpt lat="43.88675" lon="5.12739">
        <ele>253</ele>
        <time>2015-01-02T10:01:21Z</time>
      </trkpt>
      <trkpt lat="43.8865" lon="5.12745">
        <ele>253</ele>
        <time>2015-01-02T10:01:32Z</time>
      </trkpt>
      <trkpt lat="43.8863" lon="5.12749">
        <ele>254</ele>
        <time>2015-01-02T10:01:41Z</time>
      </trkpt>
      <trkpt lat="43.88595" lon="5.12749">
        <ele>253</ele>
        <time>2015-01-02T10:01:51Z</time>
      </trkpt>
      <trkpt lat="43.88572" lon="5.12748">
        <ele>254</ele>
        <time>2015-01-02T10:01:56Z</time>
      </trkpt>
      <trkpt lat="43.88555" lon="5.12754">
        <ele>253</ele>
        <time>2015-01-02T10:02:01Z</time>
      </trkpt>
      <trkpt lat="43.88538" lon="5.12755">
        <ele>254</ele>
        <time>2015-01-02T10:02:07Z</time>
      </trkpt>
      <trkpt lat="43.88518" lon="5.12756">
        <ele>254</ele>
        <time>2015-01-02T10:02:15Z</time>
      </trkpt>
      <trkpt lat="43.88498" lon="5.12762">
        <ele>256</ele>
        <time>2015-01-02T10:02:25Z</time>
      </trkpt>
      <trkpt lat="43.88482" lon="5.12762">
        <ele>254</ele>
        <time>2015-01-02T10:02:37Z</time>
      </trkpt>
      <trkpt lat="43.88471" lon="5.12759">
        <ele>255</ele>
        <time>2015-01-02T10:02:42Z</time>
      </trkpt>
      <trkpt lat="43.88461" lon="5.12765">
        <ele>253</ele>
        <time>2015-01-02T10:02:48Z</time>
      </trkpt>
      <trkpt lat="43.88461" lon="5.12765">
        <ele>205.6</ele>
        <time>2015-01-02T10:02:53Z</time>
      </trkpt>
      <trkpt lat="43.88461" lon="5.12765">
        <ele>205.6</ele>
        <time>2015-01-02T10:03:00Z</time>
      </trkpt>
      <trkpt lat="43.88482" lon="5.12764">
        <ele>252</ele>
        <time>2015-01-02T10:03:00Z</time>
      </trkpt>
      <trkpt lat="43.88488" lon="5.12764">
        <ele>254</ele>
        <time>2015-01-02T10:03:03Z</time>
      </trkpt>
      <trkpt lat="43.88498" lon="5.12764">
        <ele>255</ele>
        <time>2015-01-02T10:03:08Z</time>
      </trkpt>
      <trkpt lat="43.88514" lon="5.12769">
        <ele>250</ele>
        <time>2015-01-02T10:03:13Z</time>
      </trkpt>
      <trkpt lat="43.88533" lon="5.1278">
        <ele>250</ele>
        <time>2015-01-02T10:03:19Z</time>
      </trkpt>
      <trkpt lat="43.88559" lon="5.12797">
        <ele>249</ele>
        <time>2015-01-02T10:03:26Z</time>
      </trkpt>
      <trkpt lat="43.88577" lon="5.12828">
        <ele>250</ele>
        <time>2015-01-02T10:03:32Z</time>
      </trkpt>
      <trkpt lat="43.88586" lon="5.1285">
        <ele>252</ele>
        <time>2015-01-02T10:03:38Z</time>
      </trkpt>
      <trkpt lat="43.88598" lon="5.12872">
        <ele>254</ele>
        <time>2015-01-02T10:03:46Z</time>
      </trkpt>
      <trkpt lat="43.88614" lon="5.12894">
        <ele>257</ele>
        <time>2015-01-02T10:03:53Z</time>
      </trkpt>
      <trkpt lat="43.88633" lon="5.12913">
        <ele>255</ele>
        <time>2015-01-02T10:04:02Z</time>
      </trkpt>
      <trkpt lat="43.88651" lon="5.12922">
        <ele>252</ele>
        <time>2015-01-02T10:04:10Z</time>
      </trkpt>
      <trkpt lat="43.88662" lon="5.12933">
        <ele>256</ele>
        <time>2015-01-02T10:04:15Z</time>
      </trkpt>
      <trkpt lat="43.88671" lon="5.12941">
        <ele>256</ele>
        <time>2015-01-02T10:04:20Z</time>
      </trkpt>
      <trkpt lat="43.88692" lon="5.12954">
        <ele>256</ele>
        <time>2015-01-02T10:04:30Z</time>
      </trkpt>
      <trkpt lat="43.88711" lon="5.12968">
        <ele>255</ele>
        <time>2015-01-02T10:04:39Z</time>
      </trkpt>
      <trkpt lat="43.88727" lon="5.12978">
        <ele>253</ele>
        <time>2015-01-02T10:04:45Z</time>
      </trkpt>
      <trkpt lat="43.88748" lon="5.12982">
        <ele>251</ele>
        <time>2015-01-02T10:04:52Z</time>
      </trkpt>
      <trkpt lat="43.88758" lon="5.12962">
        <ele>253</ele>
        <time>2015-01-02T10:05:01Z</time>
      </trkpt>
      <trkpt lat="43.88755" lon="5.12936">
        <ele>255</ele>
        <time>2015-01-02T10:05:08Z</time>
      </trkpt>
      <trkpt lat="43.88754" lon="5.12922">
        <ele>257</ele>
        <time>2015-01-02T10:05:12Z</time>
      </trkpt>
      <trkpt lat="43.88753" lon="5.12888">
        <ele>258</ele>
        <time>2015-01-02T10:05:19Z</time>
      </trkpt>
      <trkpt lat="43.88754" lon="5.12864">
        <ele>258</ele>
        <time>2015-01-02T10:05:32Z</time>
      </trkpt>
      <trkpt lat="43.8875" lon="5.12816">
        <ele>257</ele>
        <time>2015-01-02T10:05:42Z</time>
      </trkpt>
      <trkpt lat="43.88742" lon="5.1278">
        <ele>258</ele>
        <time>2015-01-02T10:05:47Z</time>
      </trkpt>
      <trkpt lat="43.88744" lon="5.12754">
        <ele>257</ele>
        <time>2015-01-02T10:05:50Z</time>
      </trkpt>
      <trkpt lat="43.88737" lon="5.12729">
        <ele>257</ele>
        <time>2015-01-02T10:05:53Z</time>
      </trkpt>
      <trkpt lat="43.8872" lon="5.12727">
        <ele>253</ele>
        <time>2015-01-02T10:05:58Z</time>
      </trkpt>
      <trkpt lat="43.88703" lon="5.12729">
        <ele>254</ele>
        <time>2015-01-02T10:06:05Z</time>
      </trkpt>
      <trkpt lat="43.88679" lon="5.1274">
        <ele>255</ele>
        <time>2015-01-02T10:06:15Z</time>
      </trkpt>
      <trkpt lat="43.8866" lon="5.12738">
        <ele>257</ele>
        <time>2015-01-02T10:06:23Z</time>
      </trkpt>
      <trkpt lat="43.88639" lon="5.12745">
        <ele>256</ele>
        <time>2015-01-02T10:06:32Z</time>
      </trkpt>
      <trkpt lat="43.88612" lon="5.12748">
        <ele>258</ele>
        <time>2015-01-02T10:06:40Z</time>
      </trkpt>
      <trkpt lat="43.88583" lon="5.1275">
        <ele>254</ele>
        <time>2015-01-02T10:06:46Z</time>
      </trkpt>
      <trkpt lat="43.88562" lon="5.12751">
        <ele>253</ele>
        <time>2015-01-02T10:06:52Z</time>
      </trkpt>
      <trkpt lat="43.88541" lon="5.12754">
        <ele>254</ele>
        <time>2015-01-02T10:06:57Z</time>
      </trkpt>
      <trkpt lat="43.88521" lon="5.12752">
        <ele>255</ele>
        <time>2015-01-02T10:07:04Z</time>
      </trkpt>
      <trkpt lat="43.88503" lon="5.12758">
        <ele>257</ele>
        <time>2015-01-02T10:07:10Z</time>
      </trkpt>
      <trkpt lat="43.88488" lon="5.12762">
        <ele>258</ele>
        <time>2015-01-02T10:07:16Z</time>
      </trkpt>
      <trkpt lat="43.88473" lon="5.12762">
        <ele>256</ele>
        <time>2015-01-02T10:07:23Z</time>
      </trkpt>
      <trkpt lat="43.88464" lon="5.12744">
        <ele>255</ele>
        <time>2015-01-02T10:07:43Z</time>
      </trkpt>
      <trkpt lat="43.88454" lon="5.12736">
        <ele>254</ele>
        <time>2015-01-02T10:07:46Z</time>
      </trkpt>
      <trkpt lat="43.88454" lon="5.12736">
        <ele>203.7</ele>
        <time>2015-01-02T10:07:53Z</time>
      </trkpt>
      <trkpt lat="43.88454" lon="5.12736">
        <ele>203.7</ele>
        <time>2015-01-02T10:08:49Z</time>
      </trkpt>
      <trkpt lat="43.88448" lon="5.12752">
        <ele>256</ele>
        <time>2015-01-02T10:08:49Z</time>
      </trkpt>
      <trkpt lat="43.88439" lon="5.12762">
        <ele>254</ele>
        <time>2015-01-02T10:08:54Z</time>
      </trkpt>
      <trkpt lat="43.88423" lon="5.12761">
        <ele>252</ele>
        <time>2015-01-02T10:09:00Z</time>
      </trkpt>
      <trkpt lat="43.88407" lon="5.12761">
        <ele>251</ele>
        <time>2015-01-02T10:09:05Z</time>
      </trkpt>
      <trkpt lat="43.88385" lon="5.12759">
        <ele>253</ele>
        <time>2015-01-02T10:09:12Z</time>
      </trkpt>
      <trkpt lat="43.88362" lon="5.12756">
        <ele>249</ele>
        <time>2015-01-02T10:09:17Z</time>
      </trkpt>
      <trkpt lat="43.88338" lon="5.12764">
        <ele>251</ele>
        <time>2015-01-02T10:09:23Z</time>
      </trkpt>
      <trkpt lat="43.88316" lon="5.12778">
        <ele>249</ele>
        <time>2015-01-02T10:09:30Z</time>
      </trkpt>
      <trkpt lat="43.88294" lon="5.12782">
        <ele>251</ele>
        <time>2015-01-02T10:09:36Z</time>
      </trkpt>
      <trkpt lat="43.88273" lon="5.12772">
        <ele>255</ele>
        <time>2015-01-02T10:09:43Z</time>
      </trkpt>
      <trkpt lat="43.88251" lon="5.12771">
        <ele>255</ele>
        <time>2015-01-02T10:09:49Z</time>
      </trkpt>
      <trkpt lat="43.88233" lon="5.12771">
        <ele>252</ele>
        <time>2015-01-02T10:09:54Z</time>
      </trkpt>
      <trkpt lat="43.88204" lon="5.12767">
        <ele>253</ele>
        <time>2015-01-02T10:10:01Z</time>
      </trkpt>
      <trkpt lat="43.88188" lon="5.12766">
        <ele>249</ele>
        <time>2015-01-02T10:10:05Z</time>
      </trkpt>
      <trkpt lat="43.88158" lon="5.12767">
        <ele>249</ele>
        <time>2015-01-02T10:10:11Z</time>
      </trkpt>
      <trkpt lat="43.88134" lon="5.12764">
        <ele>249</ele>
        <time>2015-01-02T10:10:17Z</time>
      </trkpt>
      <trkpt lat="43.88103" lon="5.12767">
        <ele>249</ele>
        <time>2015-01-02T10:10:22Z</time>
      </trkpt>
      <trkpt lat="43.8808" lon="5.1277">
        <ele>249</ele>
        <time>2015-01-02T10:10:27Z</time>
      </trkpt>
      <trkpt lat="43.88063" lon="5.12753">
        <ele>250</ele>
        <time>2015-01-02T10:10:34Z</time>
      </trkpt>
      <trkpt lat="43.88071" lon="5.12726">
        <ele>249</ele>
        <time>2015-01-02T10:10:42Z</time>
      </trkpt>
      <trkpt lat="43.88091" lon="5.12715">
        <ele>247</ele>
        <time>2015-01-02T10:10:48Z</time>
      </trkpt>
      <trkpt lat="43.88109" lon="5.12697">
        <ele>248</ele>
        <time>2015-01-02T10:10:54Z</time>
      </trkpt>
      <trkpt lat="43.88123" lon="5.12677">
        <ele>246</ele>
        <time>2015-01-02T10:11:01Z</time>
      </trkpt>
      <trkpt lat="43.88123" lon="5.12677">
        <ele>246</ele>
        <time>2015-01-02T10:11:06Z</time>
      </trkpt>
      <trkpt lat="43.88123" lon="5.12677">
        <ele>197.5</ele>
        <time>2015-01-02T10:11:06Z</time>
      </trkpt>
      <trkpt lat="43.88123" lon="5.12677">
        <ele>197.5</ele>
        <time>2015-01-02T10:11:35Z</time>
      </trkpt>
      <trkpt lat="43.88114" lon="5.1269">
        <ele>247</ele>
        <time>2015-01-02T10:11:35Z</time>
      </trkpt>
      <trkpt lat="43.88095" lon="5.12714">
        <ele>247</ele>
        <time>2015-01-02T10:11:45Z</time>
      </trkpt>
      <trkpt lat="43.88074" lon="5.12725">
        <ele>247</ele>
        <time>2015-01-02T10:11:53Z</time>
      </trkpt>
      <trkpt lat="43.88058" lon="5.12734">
        <ele>247</ele>
        <time>2015-01-02T10:12:00Z</time>
      </trkpt>
      <trkpt lat="43.88037" lon="5.12745">
        <ele>246</ele>
        <time>2015-01-02T10:12:09Z</time>
      </trkpt>
      <trkpt lat="43.88027" lon="5.12745">
        <ele>245</ele>
        <time>2015-01-02T10:12:12Z</time>
      </trkpt>
      <trkpt lat="43.88027" lon="5.12745">
        <ele>195.3</ele>
        <time>2015-01-02T10:12:17Z</time>
      </trkpt>
      <trkpt lat="43.88027" lon="5.12745">
        <ele>195.3</ele>
        <time>2015-01-02T10:13:46Z</time>
      </trkpt>
      <trkpt lat="43.88039" lon="5.12744">
        <ele>246</ele>
        <time>2015-01-02T10:16:48Z</time>
      </trkpt>
      <trkpt lat="43.88051" lon="5.12751">
        <ele>246</ele>
        <time>2015-01-02T10:16:57Z</time>
      </trkpt>
      <trkpt lat="43.88068" lon="5.12729">
        <ele>248</ele>
        <time>2015-01-02T10:17:10Z</time>
      </trkpt>
      <trkpt lat="43.8808" lon="5.1272">
        <ele>248</ele>
        <time>2015-01-02T10:17:15Z</time>
      </trkpt>
      <trkpt lat="43.88095" lon="5.12715">
        <ele>248</ele>
        <time>2015-01-02T10:17:20Z</time>
      </trkpt>
      <trkpt lat="43.88108" lon="5.12714">
        <ele>248</ele>
        <time>2015-01-02T10:17:24Z</time>
      </trkpt>
      <trkpt lat="43.88126" lon="5.12711">
        <ele>248</ele>
        <time>2015-01-02T10:17:29Z</time>
      </trkpt>
      <trkpt lat="43.88151" lon="5.12701">
        <ele>248</ele>
        <time>2015-01-02T10:17:36Z</time>
      </trkpt>
      <trkpt lat="43.88172" lon="5.12697">
        <ele>248</ele>
        <time>2015-01-02T10:17:42Z</time>
      </trkpt>
      <trkpt lat="43.88194" lon="5.12703">
        <ele>248</ele>
        <time>2015-01-02T10:17:49Z</time>
      </trkpt>
      <trkpt lat="43.8821" lon="5.1271">
        <ele>248</ele>
        <time>2015-01-02T10:17:54Z</time>
      </trkpt>
      <trkpt lat="43.8822" lon="5.12714">
        <ele>248</ele>
        <time>2015-01-02T10:17:57Z</time>
      </trkpt>
      <trkpt lat="43.88246" lon="5.12723">
        <ele>248</ele>
        <time>2015-01-02T10:18:04Z</time>
      </trkpt>
      <trkpt lat="43.88269" lon="5.12738">
        <ele>249</ele>
        <time>2015-01-02T10:18:10Z</time>
      </trkpt>
      <trkpt lat="43.88298" lon="5.12746">
        <ele>250</ele>
        <time>2015-01-02T10:18:16Z</time>
      </trkpt>
      <trkpt lat="43.88329" lon="5.12758">
        <ele>252</ele>
        <time>2015-01-02T10:18:23Z</time>
      </trkpt>
      <trkpt lat="43.88351" lon="5.12757">
        <ele>251</ele>
        <time>2015-01-02T10:18:29Z</time>
      </trkpt>
      <trkpt lat="43.8837" lon="5.12757">
        <ele>251</ele>
        <time>2015-01-02T10:18:34Z</time>
      </trkpt>
      <trkpt lat="43.88381" lon="5.12757">
        <ele>252</ele>
        <time>2015-01-02T10:18:37Z</time>
      </trkpt>
      <trkpt lat="43.88396" lon="5.12759">
        <ele>253</ele>
        <time>2015-01-02T10:18:41Z</time>
      </trkpt>
      <trkpt lat="43.88415" lon="5.12761">
        <ele>254</ele>
        <time>2015-01-02T10:18:46Z</time>
      </trkpt>
      <trkpt lat="43.88439" lon="5.12761">
        <ele>256</ele>
        <time>2015-01-02T10:18:53Z</time>
      </trkpt>
      <trkpt lat="43.88447" lon="5.12761">
        <ele>256</ele>
        <time>2015-01-02T10:18:56Z</time>
      </trkpt>
      <trkpt lat="43.88455" lon="5.12762">
        <ele>256</ele>
        <time>2015-01-02T10:18:59Z</time>
      </trkpt>
      <trkpt lat="43.88463" lon="5.12762">
        <ele>256</ele>
        <time>2015-01-02T10:19:02Z</time>
      </trkpt>
      <trkpt lat="43.8846" lon="5.12741">
        <ele>254</ele>
        <time>2015-01-02T10:19:12Z</time>
      </trkpt>
      <trkpt lat="43.88452" lon="5.12715">
        <ele>251</ele>
        <time>2015-01-02T10:19:19Z</time>
      </trkpt>
      <trkpt lat="43.88448" lon="5.12704">
        <ele>252</ele>
        <time>2015-01-02T10:19:24Z</time>
      </trkpt>
      <trkpt lat="43.8842" lon="5.12685">
        <ele>250</ele>
        <time>2015-01-02T10:19:36Z</time>
      </trkpt>
      <trkpt lat="43.88402" lon="5.12671">
        <ele>248</ele>
        <time>2015-01-02T10:19:43Z</time>
      </trkpt>
      <trkpt lat="43.88372" lon="5.12665">
        <ele>246</ele>
        <time>2015-01-02T10:19:49Z</time>
      </trkpt>
      <trkpt lat="43.8834" lon="5.1265">
        <ele>244</ele>
        <time>2015-01-02T10:19:56Z</time>
      </trkpt>
      <trkpt lat="43.88316" lon="5.12637">
        <ele>243</ele>
        <time>2015-01-02T10:20:02Z</time>
      </trkpt>
      <trkpt lat="43.88311" lon="5.12634">
        <ele>245</ele>
        <time>2015-01-02T10:20:06Z</time>
      </trkpt>
      <trkpt lat="43.88311" lon="5.12634">
        <ele>191.7</ele>
        <time>2015-01-02T10:20:12Z</time>
      </trkpt>
      <trkpt lat="43.88311" lon="5.12634">
        <ele>191.7</ele>
        <time>2015-01-02T10:20:17Z</time>
      </trkpt>
      <trkpt lat="43.88307" lon="5.12631">
        <ele>246</ele>
        <time>2015-01-02T10:20:17Z</time>
      </trkpt>
      <trkpt lat="43.88281" lon="5.12646">
        <ele>245</ele>
        <time>2015-01-02T10:21:07Z</time>
      </trkpt>
      <trkpt lat="43.88267" lon="5.12642">
        <ele>246</ele>
        <time>2015-01-02T10:21:12Z</time>
      </trkpt>
      <trkpt lat="43.88259" lon="5.12644">
        <ele>247</ele>
        <time>2015-01-02T10:21:16Z</time>
      </trkpt>
      <trkpt lat="43.88259" lon="5.12644">
        <ele>195.5</ele>
        <time>2015-01-02T10:21:22Z</time>
      </trkpt>
      <trkpt lat="43.88259" lon="5.12644">
        <ele>195.5</ele>
        <time>2015-01-02T10:21:26Z</time>
      </trkpt>
      <trkpt lat="43.88253" lon="5.12652">
        <ele>248</ele>
        <time>2015-01-02T10:21:26Z</time>
      </trkpt>
      <trkpt lat="43.88226" lon="5.12659">
        <ele>247</ele>
        <time>2015-01-02T10:21:38Z</time>
      </trkpt>
      <trkpt lat="43.88225" lon="5.12653">
        <ele>245</ele>
        <time>2015-01-02T10:21:42Z</time>
      </trkpt>
      <trkpt lat="43.88225" lon="5.12653">
        <ele>197</ele>
        <time>2015-01-02T10:21:49Z</time>
      </trkpt>
      <trkpt lat="43.88225" lon="5.12653">
        <ele>197</ele>
        <time>2015-01-02T10:22:14Z</time>
      </trkpt>
      <trkpt lat="43.88223" lon="5.12623">
        <ele>245</ele>
        <time>2015-01-02T10:22:14Z</time>
      </trkpt>
      <trkpt lat="43.88213" lon="5.12589">
        <ele>244</ele>
        <time>2015-01-02T10:22:20Z</time>
      </trkpt>
      <trkpt lat="43.88211" lon="5.12554">
        <ele>244</ele>
        <time>2015-01-02T10:22:27Z</time>
      </trkpt>
      <trkpt lat="43.88211" lon="5.1252">
        <ele>243</ele>
        <time>2015-01-02T10:22:33Z</time>
      </trkpt>
      <trkpt lat="43.88205" lon="5.12496">
        <ele>242</ele>
        <time>2015-01-02T10:22:38Z</time>
      </trkpt>
      <trkpt lat="43.88194" lon="5.12465">
        <ele>241</ele>
        <time>2015-01-02T10:22:45Z</time>
      </trkpt>
      <trkpt lat="43.88179" lon="5.12474">
        <ele>243</ele>
        <time>2015-01-02T10:22:50Z</time>
      </trkpt>
      <trkpt lat="43.88163" lon="5.12472">
        <ele>240</ele>
        <time>2015-01-02T10:22:58Z</time>
      </trkpt>
      <trkpt lat="43.88145" lon="5.12462">
        <ele>237</ele>
        <time>2015-01-02T10:23:03Z</time>
      </trkpt>
      <trkpt lat="43.88126" lon="5.12437">
        <ele>232</ele>
        <time>2015-01-02T10:23:10Z</time>
      </trkpt>
      <trkpt lat="43.88107" lon="5.12418">
        <ele>230</ele>
        <time>2015-01-02T10:23:16Z</time>
      </trkpt>
      <trkpt lat="43.88098" lon="5.12397">
        <ele>231</ele>
        <time>2015-01-02T10:23:22Z</time>
      </trkpt>
      <trkpt lat="43.88087" lon="5.12376">
        <ele>233</ele>
        <time>2015-01-02T10:23:32Z</time>
      </trkpt>
      <trkpt lat="43.88082" lon="5.12382">
        <ele>233</ele>
        <time>2015-01-02T10:23:37Z</time>
      </trkpt>
      <trkpt lat="43.88082" lon="5.12382">
        <ele>185</ele>
        <time>2015-01-02T10:23:45Z</time>
      </trkpt>
      <trkpt lat="43.88082" lon="5.12382">
        <ele>185</ele>
        <time>2015-01-02T10:33:33Z</time>
      </trkpt>
      <trkpt lat="43.88076" lon="5.12368">
        <ele>237</ele>
        <time>2015-01-02T10:33:33Z</time>
      </trkpt>
      <trkpt lat="43.88058" lon="5.12356">
        <ele>242</ele>
        <time>2015-01-02T10:33:52Z</time>
      </trkpt>
      <trkpt lat="43.88037" lon="5.12341">
        <ele>243</ele>
        <time>2015-01-02T10:34:04Z</time>
      </trkpt>
      <trkpt lat="43.88022" lon="5.12324">
        <ele>242</ele>
        <time>2015-01-02T10:34:12Z</time>
      </trkpt>
      <trkpt lat="43.88003" lon="5.12316">
        <ele>240</ele>
        <time>2015-01-02T10:34:17Z</time>
      </trkpt>
      <trkpt lat="43.87978" lon="5.12309">
        <ele>239</ele>
        <time>2015-01-02T10:34:24Z</time>
      </trkpt>
      <trkpt lat="43.87973" lon="5.12298">
        <ele>240</ele>
        <time>2015-01-02T10:34:29Z</time>
      </trkpt>
      <trkpt lat="43.87965" lon="5.12278">
        <ele>243</ele>
        <time>2015-01-02T10:34:38Z</time>
      </trkpt>
      <trkpt lat="43.87952" lon="5.12268">
        <ele>243</ele>
        <time>2015-01-02T10:34:45Z</time>
      </trkpt>
      <trkpt lat="43.87941" lon="5.12255">
        <ele>242</ele>
        <time>2015-01-02T10:34:53Z</time>
      </trkpt>
      <trkpt lat="43.87912" lon="5.12233">
        <ele>239</ele>
        <time>2015-01-02T10:35:04Z</time>
      </trkpt>
      <trkpt lat="43.87888" lon="5.12218">
        <ele>233</ele>
        <time>2015-01-02T10:35:09Z</time>
      </trkpt>
      <trkpt lat="43.87879" lon="5.12216">
        <ele>234</ele>
        <time>2015-01-02T10:35:14Z</time>
      </trkpt>
      <trkpt lat="43.87857" lon="5.12212">
        <ele>236</ele>
        <time>2015-01-02T10:35:24Z</time>
      </trkpt>
      <trkpt lat="43.87845" lon="5.12231">
        <ele>234</ele>
        <time>2015-01-02T10:35:35Z</time>
      </trkpt>
      <trkpt lat="43.87835" lon="5.12226">
        <ele>238</ele>
        <time>2015-01-02T10:35:44Z</time>
      </trkpt>
      <trkpt lat="43.87813" lon="5.12201">
        <ele>237</ele>
        <time>2015-01-02T10:35:51Z</time>
      </trkpt>
      <trkpt lat="43.87811" lon="5.12168">
        <ele>236</ele>
        <time>2015-01-02T10:35:56Z</time>
      </trkpt>
      <trkpt lat="43.87815" lon="5.12157">
        <ele>234</ele>
        <time>2015-01-02T10:36:02Z</time>
      </trkpt>
      <trkpt lat="43.87826" lon="5.12145">
        <ele>232</ele>
        <time>2015-01-02T10:36:08Z</time>
      </trkpt>
      <trkpt lat="43.87826" lon="5.12145">
        <ele>180.8</ele>
        <time>2015-01-02T10:36:15Z</time>
      </trkpt>
      <trkpt lat="43.87826" lon="5.12145">
        <ele>180.8</ele>
        <time>2015-01-02T10:37:32Z</time>
      </trkpt>
      <trkpt lat="43.878" lon="5.12155">
        <ele>240</ele>
        <time>2015-01-02T10:37:32Z</time>
      </trkpt>
      <trkpt lat="43.8779" lon="5.12174">
        <ele>242</ele>
        <time>2015-01-02T10:37:44Z</time>
      </trkpt>
      <trkpt lat="43.87778" lon="5.12195">
        <ele>241</ele>
        <time>2015-01-02T10:37:53Z</time>
      </trkpt>
      <trkpt lat="43.87771" lon="5.12216">
        <ele>240</ele>
        <time>2015-01-02T10:38:00Z</time>
      </trkpt>
      <trkpt lat="43.87765" lon="5.12242">
        <ele>242</ele>
        <time>2015-01-02T10:38:09Z</time>
      </trkpt>
      <trkpt lat="43.87755" lon="5.12268">
        <ele>241</ele>
        <time>2015-01-02T10:38:19Z</time>
      </trkpt>
      <trkpt lat="43.87747" lon="5.12294">
        <ele>240</ele>
        <time>2015-01-02T10:38:29Z</time>
      </trkpt>
      <trkpt lat="43.87741" lon="5.12327">
        <ele>239</ele>
        <time>2015-01-02T10:38:37Z</time>
      </trkpt>
      <trkpt lat="43.87742" lon="5.12346">
        <ele>240</ele>
        <time>2015-01-02T10:38:45Z</time>
      </trkpt>
      <trkpt lat="43.87743" lon="5.12354">
        <ele>239</ele>
        <time>2015-01-02T10:38:49Z</time>
      </trkpt>
      <trkpt lat="43.87743" lon="5.12354">
        <ele>187.7</ele>
        <time>2015-01-02T10:38:57Z</time>
      </trkpt>
      <trkpt lat="43.87743" lon="5.12354">
        <ele>187.7</ele>
        <time>2015-01-02T10:39:15Z</time>
      </trkpt>
      <trkpt lat="43.8776" lon="5.12337">
        <ele>239</ele>
        <time>2015-01-02T10:39:15Z</time>
      </trkpt>
      <trkpt lat="43.87779" lon="5.12329">
        <ele>240</ele>
        <time>2015-01-02T10:39:22Z</time>
      </trkpt>
      <trkpt lat="43.87795" lon="5.12324">
        <ele>240</ele>
        <time>2015-01-02T10:39:30Z</time>
      </trkpt>
      <trkpt lat="43.87809" lon="5.12317">
        <ele>242</ele>
        <time>2015-01-02T10:39:41Z</time>
      </trkpt>
      <trkpt lat="43.87825" lon="5.1231">
        <ele>243</ele>
        <time>2015-01-02T10:39:50Z</time>
      </trkpt>
      <trkpt lat="43.87829" lon="5.12307">
        <ele>244</ele>
        <time>2015-01-02T10:39:53Z</time>
      </trkpt>
      <trkpt lat="43.87829" lon="5.12307">
        <ele>192.9</ele>
        <time>2015-01-02T10:39:58Z</time>
      </trkpt>
      <trkpt lat="43.87829" lon="5.12307">
        <ele>192.9</ele>
        <time>2015-01-02T10:40:13Z</time>
      </trkpt>
      <trkpt lat="43.87843" lon="5.12254">
        <ele>237</ele>
        <time>2015-01-02T10:40:17Z</time>
      </trkpt>
      <trkpt lat="43.8786" lon="5.1222">
        <ele>237</ele>
        <time>2015-01-02T10:41:19Z</time>
      </trkpt>
      <trkpt lat="43.87875" lon="5.12221">
        <ele>238</ele>
        <time>2015-01-02T10:41:31Z</time>
      </trkpt>
      <trkpt lat="43.87885" lon="5.12221">
        <ele>239</ele>
        <time>2015-01-02T10:41:39Z</time>
      </trkpt>
      <trkpt lat="43.87904" lon="5.12238">
        <ele>241</ele>
        <time>2015-01-02T10:41:52Z</time>
      </trkpt>
      <trkpt lat="43.87922" lon="5.12251">
        <ele>246</ele>
        <time>2015-01-02T10:42:04Z</time>
      </trkpt>
      <trkpt lat="43.8794" lon="5.12265">
        <ele>246</ele>
        <time>2015-01-02T10:42:18Z</time>
      </trkpt>
      <trkpt lat="43.87967" lon="5.12282">
        <ele>239</ele>
        <time>2015-01-02T10:42:31Z</time>
      </trkpt>
      <trkpt lat="43.87967" lon="5.12298">
        <ele>240</ele>
        <time>2015-01-02T10:42:37Z</time>
      </trkpt>
      <trkpt lat="43.87967" lon="5.12298">
        <ele>190.5</ele>
        <time>2015-01-02T10:42:42Z</time>
      </trkpt>
      <trkpt lat="43.87967" lon="5.12298">
        <ele>190.5</ele>
        <time>2015-01-02T10:43:42Z</time>
      </trkpt>
      <trkpt lat="43.87995" lon="5.12314">
        <ele>240</ele>
        <time>2015-01-02T10:43:42Z</time>
      </trkpt>
      <trkpt lat="43.88011" lon="5.12318">
        <ele>239</ele>
        <time>2015-01-02T10:43:49Z</time>
      </trkpt>
      <trkpt lat="43.8802" lon="5.12329">
        <ele>238</ele>
        <time>2015-01-02T10:43:55Z</time>
      </trkpt>
      <trkpt lat="43.88036" lon="5.1234">
        <ele>235</ele>
        <time>2015-01-02T10:44:03Z</time>
      </trkpt>
      <trkpt lat="43.88054" lon="5.12353">
        <ele>236</ele>
        <time>2015-01-02T10:44:11Z</time>
      </trkpt>
      <trkpt lat="43.88073" lon="5.12365">
        <ele>234</ele>
        <time>2015-01-02T10:44:20Z</time>
      </trkpt>
      <trkpt lat="43.88084" lon="5.12381">
        <ele>231</ele>
        <time>2015-01-02T10:44:32Z</time>
      </trkpt>
      <trkpt lat="43.88075" lon="5.12415">
        <ele>229</ele>
        <time>2015-01-02T10:44:40Z</time>
      </trkpt>
      <trkpt lat="43.88069" lon="5.12439">
        <ele>232</ele>
        <time>2015-01-02T10:44:48Z</time>
      </trkpt>
      <trkpt lat="43.8807" lon="5.12467">
        <ele>234</ele>
        <time>2015-01-02T10:44:57Z</time>
      </trkpt>
      <trkpt lat="43.88075" lon="5.12499">
        <ele>236</ele>
        <time>2015-01-02T10:45:06Z</time>
      </trkpt>
      <trkpt lat="43.88078" lon="5.1253">
        <ele>238</ele>
        <time>2015-01-02T10:45:13Z</time>
      </trkpt>
      <trkpt lat="43.88082" lon="5.12549">
        <ele>237</ele>
        <time>2015-01-02T10:45:16Z</time>
      </trkpt>
      <trkpt lat="43.88082" lon="5.12549">
        <ele>188.7</ele>
        <time>2015-01-02T10:45:23Z</time>
      </trkpt>
      <trkpt lat="43.88082" lon="5.12549">
        <ele>188.7</ele>
        <time>2015-01-02T10:45:49Z</time>
      </trkpt>
      <trkpt lat="43.8807" lon="5.1256">
        <ele>240</ele>
        <time>2015-01-02T10:45:49Z</time>
      </trkpt>
      <trkpt lat="43.88058" lon="5.12549">
        <ele>247</ele>
        <time>2015-01-02T10:46:01Z</time>
      </trkpt>
      <trkpt lat="43.88047" lon="5.12531">
        <ele>248</ele>
        <time>2015-01-02T10:46:14Z</time>
      </trkpt>
      <trkpt lat="43.8804" lon="5.12505">
        <ele>248</ele>
        <time>2015-01-02T10:46:26Z</time>
      </trkpt>
      <trkpt lat="43.8804" lon="5.12505">
        <ele>248</ele>
        <time>2015-01-02T10:46:31Z</time>
      </trkpt>
      <trkpt lat="43.8804" lon="5.12505">
        <ele>196.4</ele>
        <time>2015-01-02T10:46:31Z</time>
      </trkpt>
      <trkpt lat="43.8804" lon="5.12505">
        <ele>196.4</ele>
        <time>2015-01-02T10:46:56Z</time>
      </trkpt>
      <trkpt lat="43.8802" lon="5.12497">
        <ele>249</ele>
        <time>2015-01-02T10:46:56Z</time>
      </trkpt>
      <trkpt lat="43.88011" lon="5.12491">
        <ele>250</ele>
        <time>2015-01-02T10:47:05Z</time>
      </trkpt>
      <trkpt lat="43.87995" lon="5.12524">
        <ele>251</ele>
        <time>2015-01-02T10:47:21Z</time>
      </trkpt>
      <trkpt lat="43.8798" lon="5.12522">
        <ele>254</ele>
        <time>2015-01-02T10:47:29Z</time>
      </trkpt>
      <trkpt lat="43.87964" lon="5.12539">
        <ele>254</ele>
        <time>2015-01-02T10:47:44Z</time>
      </trkpt>
      <trkpt lat="43.87973" lon="5.12561">
        <ele>255</ele>
        <time>2015-01-02T10:47:59Z</time>
      </trkpt>
      <trkpt lat="43.87983" lon="5.12575">
        <ele>257</ele>
        <time>2015-01-02T10:48:08Z</time>
      </trkpt>
      <trkpt lat="43.88003" lon="5.12587">
        <ele>256</ele>
        <time>2015-01-02T10:48:20Z</time>
      </trkpt>
      <trkpt lat="43.88026" lon="5.12604">
        <ele>254</ele>
        <time>2015-01-02T10:48:27Z</time>
      </trkpt>
      <trkpt lat="43.88038" lon="5.12618">
        <ele>252</ele>
        <time>2015-01-02T10:48:36Z</time>
      </trkpt>
      <trkpt lat="43.88045" lon="5.12638">
        <ele>251</ele>
        <time>2015-01-02T10:48:45Z</time>
      </trkpt>
      <trkpt lat="43.8805" lon="5.12663">
        <ele>251</ele>
        <time>2015-01-02T10:48:52Z</time>
      </trkpt>
      <trkpt lat="43.88037" lon="5.12682">
        <ele>249</ele>
        <time>2015-01-02T10:49:01Z</time>
      </trkpt>
      <trkpt lat="43.88042" lon="5.12709">
        <ele>246</ele>
        <time>2015-01-02T10:49:06Z</time>
      </trkpt>
      <trkpt lat="43.88048" lon="5.12735">
        <ele>245</ele>
        <time>2015-01-02T10:49:13Z</time>
      </trkpt>
      <trkpt lat="43.88068" lon="5.12761">
        <ele>246</ele>
        <time>2015-01-02T10:49:27Z</time>
      </trkpt>
      <trkpt lat="43.88075" lon="5.1277">
        <ele>246</ele>
        <time>2015-01-02T10:49:33Z</time>
      </trkpt>
      <trkpt lat="43.88081" lon="5.12772">
        <ele>246</ele>
        <time>2015-01-02T10:49:36Z</time>
      </trkpt>
      <trkpt lat="43.88081" lon="5.12772">
        <ele>196.2</ele>
        <time>2015-01-02T10:49:44Z</time>
      </trkpt>
      <trkpt lat="43.88081" lon="5.12772">
        <ele>196.2</ele>
        <time>2015-01-02T10:49:49Z</time>
      </trkpt>
      <trkpt lat="43.88085" lon="5.1278">
        <ele>245</ele>
        <time>2015-01-02T10:49:49Z</time>
      </trkpt>
      <trkpt lat="43.88089" lon="5.12833">
        <ele>242</ele>
        <time>2015-01-02T10:50:06Z</time>
      </trkpt>
      <trkpt lat="43.88094" lon="5.12856">
        <ele>239</ele>
        <time>2015-01-02T10:50:16Z</time>
      </trkpt>
      <trkpt lat="43.881" lon="5.12881">
        <ele>236</ele>
        <time>2015-01-02T10:50:23Z</time>
      </trkpt>
      <trkpt lat="43.88111" lon="5.12897">
        <ele>234</ele>
        <time>2015-01-02T10:50:30Z</time>
      </trkpt>
      <trkpt lat="43.8813" lon="5.12919">
        <ele>233</ele>
        <time>2015-01-02T10:50:43Z</time>
      </trkpt>
      <trkpt lat="43.88149" lon="5.12936">
        <ele>234</ele>
        <time>2015-01-02T10:50:53Z</time>
      </trkpt>
      <trkpt lat="43.88155" lon="5.12952">
        <ele>233</ele>
        <time>2015-01-02T10:50:58Z</time>
      </trkpt>
      <trkpt lat="43.8815" lon="5.12964">
        <ele>232</ele>
        <time>2015-01-02T10:51:03Z</time>
      </trkpt>
      <trkpt lat="43.88133" lon="5.12992">
        <ele>226</ele>
        <time>2015-01-02T10:51:11Z</time>
      </trkpt>
      <trkpt lat="43.88123" lon="5.13007">
        <ele>224</ele>
        <time>2015-01-02T10:51:17Z</time>
      </trkpt>
      <trkpt lat="43.88122" lon="5.13032">
        <ele>224</ele>
        <time>2015-01-02T10:51:23Z</time>
      </trkpt>
      <trkpt lat="43.88106" lon="5.13066">
        <ele>223</ele>
        <time>2015-01-02T10:51:29Z</time>
      </trkpt>
      <trkpt lat="43.8808" lon="5.13069">
        <ele>223</ele>
        <time>2015-01-02T10:51:34Z</time>
      </trkpt>
      <trkpt lat="43.88056" lon="5.13066">
        <ele>224</ele>
        <time>2015-01-02T10:51:39Z</time>
      </trkpt>
      <trkpt lat="43.88036" lon="5.13067">
        <ele>222</ele>
        <time>2015-01-02T10:51:44Z</time>
      </trkpt>
      <trkpt lat="43.88013" lon="5.13089">
        <ele>221</ele>
        <time>2015-01-02T10:51:50Z</time>
      </trkpt>
      <trkpt lat="43.88004" lon="5.13103">
        <ele>221</ele>
        <time>2015-01-02T10:51:53Z</time>
      </trkpt>
      <trkpt lat="43.87997" lon="5.13128">
        <ele>220</ele>
        <time>2015-01-02T10:51:58Z</time>
      </trkpt>
      <trkpt lat="43.87987" lon="5.1316">
        <ele>219</ele>
        <time>2015-01-02T10:52:05Z</time>
      </trkpt>
      <trkpt lat="43.87977" lon="5.1319">
        <ele>219</ele>
        <time>2015-01-02T10:52:11Z</time>
      </trkpt>
      <trkpt lat="43.87981" lon="5.13217">
        <ele>219</ele>
        <time>2015-01-02T10:52:20Z</time>
      </trkpt>
      <trkpt lat="43.8799" lon="5.13247">
        <ele>220</ele>
        <time>2015-01-02T10:52:36Z</time>
      </trkpt>
      <trkpt lat="43.88" lon="5.13272">
        <ele>222</ele>
        <time>2015-01-02T10:52:44Z</time>
      </trkpt>
      <trkpt lat="43.88008" lon="5.1329">
        <ele>222</ele>
        <time>2015-01-02T10:52:50Z</time>
      </trkpt>
      <trkpt lat="43.88022" lon="5.13304">
        <ele>223</ele>
        <time>2015-01-02T10:52:56Z</time>
      </trkpt>
      <trkpt lat="43.88036" lon="5.13316">
        <ele>224</ele>
        <time>2015-01-02T10:53:02Z</time>
      </trkpt>
      <trkpt lat="43.8806" lon="5.13316">
        <ele>222</ele>
        <time>2015-01-02T10:53:13Z</time>
      </trkpt>
      <trkpt lat="43.88062" lon="5.13338">
        <ele>221</ele>
        <time>2015-01-02T10:53:23Z</time>
      </trkpt>
      <trkpt lat="43.88062" lon="5.13338">
        <ele>171.7</ele>
        <time>2015-01-02T10:53:31Z</time>
      </trkpt>
      <trkpt lat="43.88062" lon="5.13338">
        <ele>171.7</ele>
        <time>2015-01-02T10:53:45Z</time>
      </trkpt>
      <trkpt lat="43.88057" lon="5.1332">
        <ele>220</ele>
        <time>2015-01-02T10:53:45Z</time>
      </trkpt>
      <trkpt lat="43.88043" lon="5.13316">
        <ele>219</ele>
        <time>2015-01-02T10:53:52Z</time>
      </trkpt>
      <trkpt lat="43.88032" lon="5.13327">
        <ele>219</ele>
        <time>2015-01-02T10:54:00Z</time>
      </trkpt>
      <trkpt lat="43.88038" lon="5.13353">
        <ele>218</ele>
        <time>2015-01-02T10:54:05Z</time>
      </trkpt>
      <trkpt lat="43.88041" lon="5.13391">
        <ele>215</ele>
        <time>2015-01-02T10:54:11Z</time>
      </trkpt>
      <trkpt lat="43.88052" lon="5.13408">
        <ele>216</ele>
        <time>2015-01-02T10:54:18Z</time>
      </trkpt>
      <trkpt lat="43.88069" lon="5.13429">
        <ele>215</ele>
        <time>2015-01-02T10:54:26Z</time>
      </trkpt>
      <trkpt lat="43.8809" lon="5.13452">
        <ele>217</ele>
        <time>2015-01-02T10:54:34Z</time>
      </trkpt>
      <trkpt lat="43.88099" lon="5.13458">
        <ele>217</ele>
        <time>2015-01-02T10:54:40Z</time>
      </trkpt>
      <trkpt lat="43.8811" lon="5.13447">
        <ele>219</ele>
        <time>2015-01-02T10:54:51Z</time>
      </trkpt>
      <trkpt lat="43.88125" lon="5.13424">
        <ele>222</ele>
        <time>2015-01-02T10:55:09Z</time>
      </trkpt>
      <trkpt lat="43.88137" lon="5.13421">
        <ele>224</ele>
        <time>2015-01-02T10:55:20Z</time>
      </trkpt>
      <trkpt lat="43.88159" lon="5.13415">
        <ele>225</ele>
        <time>2015-01-02T10:55:34Z</time>
      </trkpt>
      <trkpt lat="43.88165" lon="5.13396">
        <ele>228</ele>
        <time>2015-01-02T10:55:44Z</time>
      </trkpt>
      <trkpt lat="43.88167" lon="5.13367">
        <ele>230</ele>
        <time>2015-01-02T10:56:00Z</time>
      </trkpt>
      <trkpt lat="43.88174" lon="5.13345">
        <ele>232</ele>
        <time>2015-01-02T10:56:11Z</time>
      </trkpt>
      <trkpt lat="43.88183" lon="5.1333">
        <ele>232</ele>
        <time>2015-01-02T10:56:25Z</time>
      </trkpt>
      <trkpt lat="43.8821" lon="5.13332">
        <ele>229</ele>
        <time>2015-01-02T10:56:33Z</time>
      </trkpt>
      <trkpt lat="43.88222" lon="5.13322">
        <ele>232</ele>
        <time>2015-01-02T10:56:41Z</time>
      </trkpt>
      <trkpt lat="43.88231" lon="5.13297">
        <ele>235</ele>
        <time>2015-01-02T10:56:56Z</time>
      </trkpt>
      <trkpt lat="43.88238" lon="5.1327">
        <ele>236</ele>
        <time>2015-01-02T10:57:07Z</time>
      </trkpt>
      <trkpt lat="43.88251" lon="5.13264">
        <ele>237</ele>
        <time>2015-01-02T10:57:16Z</time>
      </trkpt>
      <trkpt lat="43.8826" lon="5.1326">
        <ele>238</ele>
        <time>2015-01-02T10:57:22Z</time>
      </trkpt>
      <trkpt lat="43.88281" lon="5.13256">
        <ele>239</ele>
        <time>2015-01-02T10:57:36Z</time>
      </trkpt>
      <trkpt lat="43.88299" lon="5.13254">
        <ele>240</ele>
        <time>2015-01-02T10:57:48Z</time>
      </trkpt>
      <trkpt lat="43.88319" lon="5.13264">
        <ele>242</ele>
        <time>2015-01-02T10:58:02Z</time>
      </trkpt>
      <trkpt lat="43.8833" lon="5.13273">
        <ele>244</ele>
        <time>2015-01-02T10:58:10Z</time>
      </trkpt>
      <trkpt lat="43.88346" lon="5.1329">
        <ele>244</ele>
        <time>2015-01-02T10:58:21Z</time>
      </trkpt>
      <trkpt lat="43.88363" lon="5.13301">
        <ele>242</ele>
        <time>2015-01-02T10:58:31Z</time>
      </trkpt>
      <trkpt lat="43.88384" lon="5.13305">
        <ele>243</ele>
        <time>2015-01-02T10:58:42Z</time>
      </trkpt>
      <trkpt lat="43.88404" lon="5.13306">
        <ele>244</ele>
        <time>2015-01-02T10:58:53Z</time>
      </trkpt>
      <trkpt lat="43.8842" lon="5.13315">
        <ele>246</ele>
        <time>2015-01-02T10:59:03Z</time>
      </trkpt>
      <trkpt lat="43.88439" lon="5.13325">
        <ele>248</ele>
        <time>2015-01-02T10:59:15Z</time>
      </trkpt>
      <trkpt lat="43.88455" lon="5.13332">
        <ele>249</ele>
        <time>2015-01-02T10:59:26Z</time>
      </trkpt>
      <trkpt lat="43.88473" lon="5.1336">
        <ele>248</ele>
        <time>2015-01-02T10:59:38Z</time>
      </trkpt>
      <trkpt lat="43.88481" lon="5.13372">
        <ele>248</ele>
        <time>2015-01-02T10:59:43Z</time>
      </trkpt>
      <trkpt lat="43.88497" lon="5.13395">
        <ele>249</ele>
        <time>2015-01-02T10:59:52Z</time>
      </trkpt>
      <trkpt lat="43.88512" lon="5.13402">
        <ele>250</ele>
        <time>2015-01-02T10:59:58Z</time>
      </trkpt>
      <trkpt lat="43.88534" lon="5.13404">
        <ele>249</ele>
        <time>2015-01-02T11:00:06Z</time>
      </trkpt>
      <trkpt lat="43.88547" lon="5.13406">
        <ele>249</ele>
        <time>2015-01-02T11:00:11Z</time>
      </trkpt>
      <trkpt lat="43.8856" lon="5.13408">
        <ele>251</ele>
        <time>2015-01-02T11:00:16Z</time>
      </trkpt>
      <trkpt lat="43.88574" lon="5.13434">
        <ele>251</ele>
        <time>2015-01-02T11:00:25Z</time>
      </trkpt>
      <trkpt lat="43.88587" lon="5.13455">
        <ele>250</ele>
        <time>2015-01-02T11:00:31Z</time>
      </trkpt>
      <trkpt lat="43.88594" lon="5.13463">
        <ele>251</ele>
        <time>2015-01-02T11:00:34Z</time>
      </trkpt>
      <trkpt lat="43.88594" lon="5.13463">
        <ele>199.8</ele>
        <time>2015-01-02T11:00:39Z</time>
      </trkpt>
      <trkpt lat="43.88594" lon="5.13463">
        <ele>199.8</ele>
        <time>2015-01-02T11:00:44Z</time>
      </trkpt>
      <trkpt lat="43.88596" lon="5.13407">
        <ele>253</ele>
        <time>2015-01-02T11:00:54Z</time>
      </trkpt>
      <trkpt lat="43.88616" lon="5.134">
        <ele>254</ele>
        <time>2015-01-02T11:01:04Z</time>
      </trkpt>
      <trkpt lat="43.88635" lon="5.13407">
        <ele>255</ele>
        <time>2015-01-02T11:01:13Z</time>
      </trkpt>
      <trkpt lat="43.88654" lon="5.13419">
        <ele>255</ele>
        <time>2015-01-02T11:01:23Z</time>
      </trkpt>
      <trkpt lat="43.88674" lon="5.13429">
        <ele>255</ele>
        <time>2015-01-02T11:01:33Z</time>
      </trkpt>
      <trkpt lat="43.88688" lon="5.13419">
        <ele>256</ele>
        <time>2015-01-02T11:01:43Z</time>
      </trkpt>
      <trkpt lat="43.88706" lon="5.13397">
        <ele>255</ele>
        <time>2015-01-02T11:01:53Z</time>
      </trkpt>
      <trkpt lat="43.88715" lon="5.13403">
        <ele>255</ele>
        <time>2015-01-02T11:01:58Z</time>
      </trkpt>
      <trkpt lat="43.88725" lon="5.13418">
        <ele>256</ele>
        <time>2015-01-02T11:02:04Z</time>
      </trkpt>
      <trkpt lat="43.88737" lon="5.13439">
        <ele>256</ele>
        <time>2015-01-02T11:02:12Z</time>
      </trkpt>
      <trkpt lat="43.88747" lon="5.13468">
        <ele>257</ele>
        <time>2015-01-02T11:02:21Z</time>
      </trkpt>
      <trkpt lat="43.88751" lon="5.13482">
        <ele>257</ele>
        <time>2015-01-02T11:02:25Z</time>
      </trkpt>
      <trkpt lat="43.88762" lon="5.13498">
        <ele>257</ele>
        <time>2015-01-02T11:02:31Z</time>
      </trkpt>
      <trkpt lat="43.88768" lon="5.13505">
        <ele>258</ele>
        <time>2015-01-02T11:02:34Z</time>
      </trkpt>
      <trkpt lat="43.88783" lon="5.13523">
        <ele>258</ele>
        <time>2015-01-02T11:02:41Z</time>
      </trkpt>
      <trkpt lat="43.88793" lon="5.13534">
        <ele>258</ele>
        <time>2015-01-02T11:02:46Z</time>
      </trkpt>
      <trkpt lat="43.88802" lon="5.13551">
        <ele>258</ele>
        <time>2015-01-02T11:02:52Z</time>
      </trkpt>
      <trkpt lat="43.88795" lon="5.13579">
        <ele>256</ele>
        <time>2015-01-02T11:03:00Z</time>
      </trkpt>
      <trkpt lat="43.88784" lon="5.13592">
        <ele>256</ele>
        <time>2015-01-02T11:03:06Z</time>
      </trkpt>
      <trkpt lat="43.8879" lon="5.13625">
        <ele>256</ele>
        <time>2015-01-02T11:03:16Z</time>
      </trkpt>
      <trkpt lat="43.88805" lon="5.13636">
        <ele>256</ele>
        <time>2015-01-02T11:03:22Z</time>
      </trkpt>
      <trkpt lat="43.88823" lon="5.13643">
        <ele>256</ele>
        <time>2015-01-02T11:03:29Z</time>
      </trkpt>
      <trkpt lat="43.8884" lon="5.13623">
        <ele>256</ele>
        <time>2015-01-02T11:03:37Z</time>
      </trkpt>
      <trkpt lat="43.88861" lon="5.13628">
        <ele>257</ele>
        <time>2015-01-02T11:03:45Z</time>
      </trkpt>
      <trkpt lat="43.88872" lon="5.1364">
        <ele>256</ele>
        <time>2015-01-02T11:03:50Z</time>
      </trkpt>
      <trkpt lat="43.88884" lon="5.13652">
        <ele>256</ele>
        <time>2015-01-02T11:03:57Z</time>
      </trkpt>
      <trkpt lat="43.88892" lon="5.13657">
        <ele>256</ele>
        <time>2015-01-02T11:04:00Z</time>
      </trkpt>
      <trkpt lat="43.889" lon="5.13661">
        <ele>256</ele>
        <time>2015-01-02T11:04:03Z</time>
      </trkpt>
      <trkpt lat="43.88919" lon="5.13672">
        <ele>255</ele>
        <time>2015-01-02T11:04:10Z</time>
      </trkpt>
      <trkpt lat="43.88931" lon="5.13668">
        <ele>254</ele>
        <time>2015-01-02T11:04:15Z</time>
      </trkpt>
      <trkpt lat="43.88931" lon="5.13668">
        <ele>204.5</ele>
        <time>2015-01-02T11:04:21Z</time>
      </trkpt>
      <trkpt lat="43.88931" lon="5.13668">
        <ele>204.5</ele>
        <time>2015-01-02T11:04:25Z</time>
      </trkpt>
      <trkpt lat="43.88937" lon="5.1368">
        <ele>253</ele>
        <time>2015-01-02T11:04:25Z</time>
      </trkpt>
      <trkpt lat="43.88943" lon="5.13689">
        <ele>251</ele>
        <time>2015-01-02T11:04:34Z</time>
      </trkpt>
      <trkpt lat="43.88944" lon="5.13691">
        <ele>250</ele>
        <time>2015-01-02T11:04:40Z</time>
      </trkpt>
      <trkpt lat="43.88944" lon="5.13691">
        <ele>201.5</ele>
        <time>2015-01-02T11:04:48Z</time>
      </trkpt>
      <trkpt lat="43.88944" lon="5.13691">
        <ele>201.5</ele>
        <time>2015-01-02T11:04:50Z</time>
      </trkpt>
      <trkpt lat="43.8895" lon="5.13703">
        <ele>249</ele>
        <time>2015-01-02T11:04:50Z</time>
      </trkpt>
      <trkpt lat="43.88979" lon="5.13733">
        <ele>246</ele>
        <time>2015-01-02T11:04:57Z</time>
      </trkpt>
      <trkpt lat="43.89004" lon="5.13753">
        <ele>245</ele>
        <time>2015-01-02T11:05:02Z</time>
      </trkpt>
      <trkpt lat="43.8903" lon="5.13774">
        <ele>242</ele>
        <time>2015-01-02T11:05:08Z</time>
      </trkpt>
      <trkpt lat="43.89034" lon="5.13802">
        <ele>239</ele>
        <time>2015-01-02T11:05:14Z</time>
      </trkpt>
      <trkpt lat="43.89033" lon="5.13817">
        <ele>238</ele>
        <time>2015-01-02T11:05:21Z</time>
      </trkpt>
      <trkpt lat="43.89041" lon="5.13841">
        <ele>238</ele>
        <time>2015-01-02T11:05:32Z</time>
      </trkpt>
      <trkpt lat="43.8906" lon="5.13851">
        <ele>239</ele>
        <time>2015-01-02T11:05:46Z</time>
      </trkpt>
      <trkpt lat="43.89072" lon="5.13849">
        <ele>240</ele>
        <time>2015-01-02T11:05:52Z</time>
      </trkpt>
      <trkpt lat="43.89095" lon="5.13857">
        <ele>242</ele>
        <time>2015-01-02T11:06:02Z</time>
      </trkpt>
      <trkpt lat="43.89104" lon="5.13861">
        <ele>244</ele>
        <time>2015-01-02T11:06:06Z</time>
      </trkpt>
      <trkpt lat="43.89117" lon="5.1387">
        <ele>245</ele>
        <time>2015-01-02T11:06:12Z</time>
      </trkpt>
      <trkpt lat="43.89137" lon="5.13884">
        <ele>248</ele>
        <time>2015-01-02T11:06:21Z</time>
      </trkpt>
      <trkpt lat="43.89154" lon="5.13892">
        <ele>251</ele>
        <time>2015-01-02T11:06:29Z</time>
      </trkpt>
      <trkpt lat="43.89175" lon="5.13895">
        <ele>252</ele>
        <time>2015-01-02T11:06:41Z</time>
      </trkpt>
      <trkpt lat="43.89194" lon="5.13907">
        <ele>252</ele>
        <time>2015-01-02T11:06:52Z</time>
      </trkpt>
      <trkpt lat="43.8921" lon="5.13922">
        <ele>255</ele>
        <time>2015-01-02T11:07:03Z</time>
      </trkpt>
      <trkpt lat="43.89225" lon="5.13928">
        <ele>255</ele>
        <time>2015-01-02T11:07:11Z</time>
      </trkpt>
      <trkpt lat="43.89243" lon="5.13939">
        <ele>255</ele>
        <time>2015-01-02T11:07:21Z</time>
      </trkpt>
      <trkpt lat="43.89257" lon="5.13956">
        <ele>257</ele>
        <time>2015-01-02T11:07:31Z</time>
      </trkpt>
      <trkpt lat="43.89271" lon="5.13955">
        <ele>257</ele>
        <time>2015-01-02T11:07:38Z</time>
      </trkpt>
      <trkpt lat="43.89291" lon="5.13952">
        <ele>259</ele>
        <time>2015-01-02T11:07:48Z</time>
      </trkpt>
      <trkpt lat="43.89313" lon="5.13951">
        <ele>261</ele>
        <time>2015-01-02T11:08:00Z</time>
      </trkpt>
      <trkpt lat="43.89328" lon="5.13933">
        <ele>263</ele>
        <time>2015-01-02T11:08:11Z</time>
      </trkpt>
      <trkpt lat="43.89338" lon="5.13918">
        <ele>264</ele>
        <time>2015-01-02T11:08:21Z</time>
      </trkpt>
      <trkpt lat="43.89356" lon="5.13915">
        <ele>264</ele>
        <time>2015-01-02T11:08:36Z</time>
      </trkpt>
      <trkpt lat="43.89363" lon="5.13893">
        <ele>267</ele>
        <time>2015-01-02T11:08:48Z</time>
      </trkpt>
      <trkpt lat="43.89368" lon="5.1387">
        <ele>270</ele>
        <time>2015-01-02T11:09:04Z</time>
      </trkpt>
      <trkpt lat="43.89367" lon="5.13866">
        <ele>268</ele>
        <time>2015-01-02T11:09:07Z</time>
      </trkpt>
      <trkpt lat="43.89367" lon="5.13866">
        <ele>215.1</ele>
        <time>2015-01-02T11:09:14Z</time>
      </trkpt>
      <trkpt lat="43.89367" lon="5.13866">
        <ele>215.1</ele>
        <time>2015-01-02T11:46:37Z</time>
      </trkpt>
      <trkpt lat="43.89366" lon="5.1385">
        <ele>260</ele>
        <time>2015-01-02T11:53:32Z</time>
      </trkpt>
      <trkpt lat="43.89376" lon="5.13823">
        <ele>267</ele>
        <time>2015-01-02T11:53:45Z</time>
      </trkpt>
      <trkpt lat="43.89385" lon="5.13808">
        <ele>267</ele>
        <time>2015-01-02T11:53:52Z</time>
      </trkpt>
      <trkpt lat="43.89394" lon="5.13797">
        <ele>274</ele>
        <time>2015-01-02T11:54:02Z</time>
      </trkpt>
      <trkpt lat="43.89413" lon="5.13778">
        <ele>278</ele>
        <time>2015-01-02T11:54:17Z</time>
      </trkpt>
      <trkpt lat="43.89422" lon="5.13768">
        <ele>280</ele>
        <time>2015-01-02T11:54:27Z</time>
      </trkpt>
      <trkpt lat="43.89422" lon="5.13768">
        <ele>280</ele>
        <time>2015-01-02T11:54:35Z</time>
      </trkpt>
      <trkpt lat="43.89422" lon="5.13768">
        <ele>223</ele>
        <time>2015-01-02T11:54:35Z</time>
      </trkpt>
      <trkpt lat="43.89422" lon="5.13768">
        <ele>223</ele>
        <time>2015-01-02T11:55:09Z</time>
      </trkpt>
      <trkpt lat="43.89444" lon="5.13739">
        <ele>277</ele>
        <time>2015-01-02T11:55:09Z</time>
      </trkpt>
      <trkpt lat="43.89453" lon="5.1372">
        <ele>275</ele>
        <time>2015-01-02T11:55:18Z</time>
      </trkpt>
      <trkpt lat="43.89459" lon="5.13703">
        <ele>275</ele>
        <time>2015-01-02T11:55:27Z</time>
      </trkpt>
      <trkpt lat="43.89466" lon="5.13686">
        <ele>278</ele>
        <time>2015-01-02T11:55:37Z</time>
      </trkpt>
      <trkpt lat="43.89475" lon="5.13675">
        <ele>282</ele>
        <time>2015-01-02T11:55:47Z</time>
      </trkpt>
      <trkpt lat="43.89478" lon="5.13657">
        <ele>283</ele>
        <time>2015-01-02T11:56:05Z</time>
      </trkpt>
      <trkpt lat="43.89469" lon="5.1364">
        <ele>284</ele>
        <time>2015-01-02T11:56:16Z</time>
      </trkpt>
      <trkpt lat="43.8947" lon="5.13606">
        <ele>288</ele>
        <time>2015-01-02T11:56:32Z</time>
      </trkpt>
      <trkpt lat="43.89469" lon="5.13582">
        <ele>288</ele>
        <time>2015-01-02T11:56:43Z</time>
      </trkpt>
      <trkpt lat="43.89467" lon="5.1355">
        <ele>287</ele>
        <time>2015-01-02T11:56:59Z</time>
      </trkpt>
      <trkpt lat="43.89466" lon="5.13527">
        <ele>292</ele>
        <time>2015-01-02T11:57:10Z</time>
      </trkpt>
      <trkpt lat="43.89459" lon="5.13499">
        <ele>293</ele>
        <time>2015-01-02T11:57:25Z</time>
      </trkpt>
      <trkpt lat="43.89461" lon="5.1348">
        <ele>294</ele>
        <time>2015-01-02T11:57:37Z</time>
      </trkpt>
      <trkpt lat="43.89452" lon="5.13454">
        <ele>296</ele>
        <time>2015-01-02T11:57:50Z</time>
      </trkpt>
      <trkpt lat="43.89441" lon="5.13408">
        <ele>279</ele>
        <time>2015-01-02T11:57:59Z</time>
      </trkpt>
      <trkpt lat="43.89422" lon="5.1337">
        <ele>283</ele>
        <time>2015-01-02T11:58:05Z</time>
      </trkpt>
      <trkpt lat="43.89431" lon="5.1335">
        <ele>287</ele>
        <time>2015-01-02T11:58:11Z</time>
      </trkpt>
      <trkpt lat="43.89443" lon="5.13336">
        <ele>294</ele>
        <time>2015-01-02T11:58:19Z</time>
      </trkpt>
      <trkpt lat="43.89427" lon="5.133">
        <ele>290</ele>
        <time>2015-01-02T11:58:30Z</time>
      </trkpt>
      <trkpt lat="43.89426" lon="5.13291">
        <ele>290</ele>
        <time>2015-01-02T11:58:31Z</time>
      </trkpt>
      <trkpt lat="43.89426" lon="5.13291">
        <ele>236.7</ele>
        <time>2015-01-02T11:58:37Z</time>
      </trkpt>
      <trkpt lat="43.89426" lon="5.13291">
        <ele>236.7</ele>
        <time>2015-01-02T11:58:50Z</time>
      </trkpt>
      <trkpt lat="43.8944" lon="5.13297">
        <ele>290</ele>
        <time>2015-01-02T11:58:50Z</time>
      </trkpt>
      <trkpt lat="43.89456" lon="5.13317">
        <ele>293</ele>
        <time>2015-01-02T11:59:10Z</time>
      </trkpt>
      <trkpt lat="43.8948" lon="5.13336">
        <ele>297</ele>
        <time>2015-01-02T11:59:29Z</time>
      </trkpt>
      <trkpt lat="43.89486" lon="5.13319">
        <ele>297</ele>
        <time>2015-01-02T11:59:42Z</time>
      </trkpt>
      <trkpt lat="43.8949" lon="5.13299">
        <ele>301</ele>
        <time>2015-01-02T11:59:58Z</time>
      </trkpt>
      <trkpt lat="43.89498" lon="5.13286">
        <ele>302</ele>
        <time>2015-01-02T12:00:10Z</time>
      </trkpt>
      <trkpt lat="43.89516" lon="5.13278">
        <ele>300</ele>
        <time>2015-01-02T12:00:24Z</time>
      </trkpt>
      <trkpt lat="43.89531" lon="5.13285">
        <ele>304</ele>
        <time>2015-01-02T12:00:37Z</time>
      </trkpt>
      <trkpt lat="43.89549" lon="5.13287">
        <ele>308</ele>
        <time>2015-01-02T12:00:52Z</time>
      </trkpt>
      <trkpt lat="43.89568" lon="5.13285">
        <ele>312</ele>
        <time>2015-01-02T12:01:07Z</time>
      </trkpt>
      <trkpt lat="43.89586" lon="5.13286">
        <ele>314</ele>
        <time>2015-01-02T12:01:22Z</time>
      </trkpt>
      <trkpt lat="43.89604" lon="5.13285">
        <ele>317</ele>
        <time>2015-01-02T12:01:37Z</time>
      </trkpt>
      <trkpt lat="43.8962" lon="5.1327">
        <ele>318</ele>
        <time>2015-01-02T12:01:52Z</time>
      </trkpt>
      <trkpt lat="43.89634" lon="5.13262">
        <ele>318</ele>
        <time>2015-01-02T12:02:06Z</time>
      </trkpt>
      <trkpt lat="43.89652" lon="5.1325">
        <ele>322</ele>
        <time>2015-01-02T12:02:23Z</time>
      </trkpt>
      <trkpt lat="43.8966" lon="5.1325">
        <ele>325</ele>
        <time>2015-01-02T12:02:32Z</time>
      </trkpt>
      <trkpt lat="43.89677" lon="5.13257">
        <ele>328</ele>
        <time>2015-01-02T12:02:48Z</time>
      </trkpt>
      <trkpt lat="43.89687" lon="5.13259">
        <ele>327</ele>
        <time>2015-01-02T12:02:57Z</time>
      </trkpt>
      <trkpt lat="43.89709" lon="5.13269">
        <ele>330</ele>
        <time>2015-01-02T12:03:12Z</time>
      </trkpt>
      <trkpt lat="43.89723" lon="5.13285">
        <ele>331</ele>
        <time>2015-01-02T12:03:21Z</time>
      </trkpt>
      <trkpt lat="43.89738" lon="5.13309">
        <ele>330</ele>
        <time>2015-01-02T12:03:32Z</time>
      </trkpt>
      <trkpt lat="43.8975" lon="5.13332">
        <ele>329</ele>
        <time>2015-01-02T12:03:41Z</time>
      </trkpt>
      <trkpt lat="43.8977" lon="5.13358">
        <ele>327</ele>
        <time>2015-01-02T12:03:51Z</time>
      </trkpt>
      <trkpt lat="43.89786" lon="5.13377">
        <ele>324</ele>
        <time>2015-01-02T12:03:59Z</time>
      </trkpt>
      <trkpt lat="43.898" lon="5.13392">
        <ele>328</ele>
        <time>2015-01-02T12:04:06Z</time>
      </trkpt>
      <trkpt lat="43.89817" lon="5.13409">
        <ele>330</ele>
        <time>2015-01-02T12:04:16Z</time>
      </trkpt>
      <trkpt lat="43.89832" lon="5.13415">
        <ele>330</ele>
        <time>2015-01-02T12:04:23Z</time>
      </trkpt>
      <trkpt lat="43.89857" lon="5.1342">
        <ele>330</ele>
        <time>2015-01-02T12:04:31Z</time>
      </trkpt>
      <trkpt lat="43.8988" lon="5.13424">
        <ele>329</ele>
        <time>2015-01-02T12:04:38Z</time>
      </trkpt>
      <trkpt lat="43.89905" lon="5.13428">
        <ele>329</ele>
        <time>2015-01-02T12:04:44Z</time>
      </trkpt>
      <trkpt lat="43.89928" lon="5.13427">
        <ele>334</ele>
        <time>2015-01-02T12:04:51Z</time>
      </trkpt>
      <trkpt lat="43.89928" lon="5.13407">
        <ele>334</ele>
        <time>2015-01-02T12:04:59Z</time>
      </trkpt>
      <trkpt lat="43.89908" lon="5.13371">
        <ele>333</ele>
        <time>2015-01-02T12:05:11Z</time>
      </trkpt>
      <trkpt lat="43.89897" lon="5.13355">
        <ele>332</ele>
        <time>2015-01-02T12:05:15Z</time>
      </trkpt>
      <trkpt lat="43.89887" lon="5.13338">
        <ele>332</ele>
        <time>2015-01-02T12:05:19Z</time>
      </trkpt>
      <trkpt lat="43.89877" lon="5.13312">
        <ele>333</ele>
        <time>2015-01-02T12:05:25Z</time>
      </trkpt>
      <trkpt lat="43.8987" lon="5.13297">
        <ele>336</ele>
        <time>2015-01-02T12:05:30Z</time>
      </trkpt>
      <trkpt lat="43.89862" lon="5.13269">
        <ele>334</ele>
        <time>2015-01-02T12:05:37Z</time>
      </trkpt>
      <trkpt lat="43.89863" lon="5.13254">
        <ele>335</ele>
        <time>2015-01-02T12:05:43Z</time>
      </trkpt>
      <trkpt lat="43.89867" lon="5.13227">
        <ele>333</ele>
        <time>2015-01-02T12:05:54Z</time>
      </trkpt>
      <trkpt lat="43.89865" lon="5.13213">
        <ele>327</ele>
        <time>2015-01-02T12:06:03Z</time>
      </trkpt>
      <trkpt lat="43.89859" lon="5.13193">
        <ele>327</ele>
        <time>2015-01-02T12:06:20Z</time>
      </trkpt>
      <trkpt lat="43.89841" lon="5.1316">
        <ele>327</ele>
        <time>2015-01-02T12:06:27Z</time>
      </trkpt>
      <trkpt lat="43.89841" lon="5.1316">
        <ele>279.7</ele>
        <time>2015-01-02T12:06:32Z</time>
      </trkpt>
      <trkpt lat="43.89841" lon="5.1316">
        <ele>279.7</ele>
        <time>2015-01-02T12:06:46Z</time>
      </trkpt>
      <trkpt lat="43.89862" lon="5.13153">
        <ele>328</ele>
        <time>2015-01-02T12:06:46Z</time>
      </trkpt>
      <trkpt lat="43.89871" lon="5.13152">
        <ele>329</ele>
        <time>2015-01-02T12:06:54Z</time>
      </trkpt>
      <trkpt lat="43.89871" lon="5.13152">
        <ele>280.1</ele>
        <time>2015-01-02T12:07:02Z</time>
      </trkpt>
      <trkpt lat="43.89871" lon="5.13152">
        <ele>280.1</ele>
        <time>2015-01-02T12:07:59Z</time>
      </trkpt>
      <trkpt lat="43.89891" lon="5.13154">
        <ele>330</ele>
        <time>2015-01-02T12:07:59Z</time>
      </trkpt>
      <trkpt lat="43.8991" lon="5.13156">
        <ele>329</ele>
        <time>2015-01-02T12:08:04Z</time>
      </trkpt>
      <trkpt lat="43.89916" lon="5.13157">
        <ele>329</ele>
        <time>2015-01-02T12:08:07Z</time>
      </trkpt>
      <trkpt lat="43.89916" lon="5.13157">
        <ele>280</ele>
        <time>2015-01-02T12:08:13Z</time>
      </trkpt>
      <trkpt lat="43.89916" lon="5.13157">
        <ele>280</ele>
        <time>2015-01-02T12:08:19Z</time>
      </trkpt>
      <trkpt lat="43.89899" lon="5.13144">
        <ele>328</ele>
        <time>2015-01-02T12:08:19Z</time>
      </trkpt>
      <trkpt lat="43.89883" lon="5.13143">
        <ele>323</ele>
        <time>2015-01-02T12:08:29Z</time>
      </trkpt>
      <trkpt lat="43.89883" lon="5.13143">
        <ele>323</ele>
        <time>2015-01-02T12:08:36Z</time>
      </trkpt>
      <trkpt lat="43.89883" lon="5.13143">
        <ele>278.1</ele>
        <time>2015-01-02T12:08:36Z</time>
      </trkpt>
      <trkpt lat="43.89883" lon="5.13143">
        <ele>278.1</ele>
        <time>2015-01-02T12:09:05Z</time>
      </trkpt>
      <trkpt lat="43.89884" lon="5.1311">
        <ele>318</ele>
        <time>2015-01-02T12:09:05Z</time>
      </trkpt>
      <trkpt lat="43.89884" lon="5.13093">
        <ele>319</ele>
        <time>2015-01-02T12:09:14Z</time>
      </trkpt>
      <trkpt lat="43.89876" lon="5.13083">
        <ele>314</ele>
        <time>2015-01-02T12:09:22Z</time>
      </trkpt>
      <trkpt lat="43.89876" lon="5.13083">
        <ele>271.2</ele>
        <time>2015-01-02T12:09:29Z</time>
      </trkpt>
      <trkpt lat="43.89876" lon="5.13083">
        <ele>271.2</ele>
        <time>2015-01-02T12:10:33Z</time>
      </trkpt>
      <trkpt lat="43.89869" lon="5.13053">
        <ele>308</ele>
        <time>2015-01-02T12:10:33Z</time>
      </trkpt>
      <trkpt lat="43.89869" lon="5.13046">
        <ele>306</ele>
        <time>2015-01-02T12:10:36Z</time>
      </trkpt>
      <trkpt lat="43.89869" lon="5.13046">
        <ele>260.5</ele>
        <time>2015-01-02T12:10:44Z</time>
      </trkpt>
      <trkpt lat="43.89869" lon="5.13046">
        <ele>260.5</ele>
        <time>2015-01-02T12:11:00Z</time>
      </trkpt>
      <trkpt lat="43.89869" lon="5.13018">
        <ele>306</ele>
        <time>2015-01-02T12:11:00Z</time>
      </trkpt>
      <trkpt lat="43.89869" lon="5.12974">
        <ele>302</ele>
        <time>2015-01-02T12:11:07Z</time>
      </trkpt>
      <trkpt lat="43.89859" lon="5.12954">
        <ele>299</ele>
        <time>2015-01-02T12:11:14Z</time>
      </trkpt>
      <trkpt lat="43.89852" lon="5.12927">
        <ele>302</ele>
        <time>2015-01-02T12:11:23Z</time>
      </trkpt>
      <trkpt lat="43.89834" lon="5.12906">
        <ele>294</ele>
        <time>2015-01-02T12:11:38Z</time>
      </trkpt>
      <trkpt lat="43.89833" lon="5.12893">
        <ele>278</ele>
        <time>2015-01-02T12:11:50Z</time>
      </trkpt>
      <trkpt lat="43.89827" lon="5.1284">
        <ele>278</ele>
        <time>2015-01-02T12:11:56Z</time>
      </trkpt>
      <trkpt lat="43.89824" lon="5.12806">
        <ele>294</ele>
        <time>2015-01-02T12:12:01Z</time>
      </trkpt>
      <trkpt lat="43.89825" lon="5.12777">
        <ele>287</ele>
        <time>2015-01-02T12:12:06Z</time>
      </trkpt>
      <trkpt lat="43.89832" lon="5.12746">
        <ele>289</ele>
        <time>2015-01-02T12:12:11Z</time>
      </trkpt>
      <trkpt lat="43.89832" lon="5.12746">
        <ele>222.3</ele>
        <time>2015-01-02T12:12:17Z</time>
      </trkpt>
      <trkpt lat="43.89832" lon="5.12746">
        <ele>222.3</ele>
        <time>2015-01-02T12:12:48Z</time>
      </trkpt>
      <trkpt lat="43.89828" lon="5.12704">
        <ele>271</ele>
        <time>2015-01-02T12:12:48Z</time>
      </trkpt>
      <trkpt lat="43.89829" lon="5.12685">
        <ele>273</ele>
        <time>2015-01-02T12:12:54Z</time>
      </trkpt>
      <trkpt lat="43.89833" lon="5.12665">
        <ele>267</ele>
        <time>2015-01-02T12:13:05Z</time>
      </trkpt>
      <trkpt lat="43.89829" lon="5.12644">
        <ele>263</ele>
        <time>2015-01-02T12:13:18Z</time>
      </trkpt>
      <trkpt lat="43.89829" lon="5.1264">
        <ele>264</ele>
        <time>2015-01-02T12:13:20Z</time>
      </trkpt>
      <trkpt lat="43.89829" lon="5.1264">
        <ele>205.8</ele>
        <time>2015-01-02T12:13:26Z</time>
      </trkpt>
      <trkpt lat="43.89829" lon="5.1264">
        <ele>205.8</ele>
        <time>2015-01-02T12:13:51Z</time>
      </trkpt>
      <trkpt lat="43.89836" lon="5.12619">
        <ele>253</ele>
        <time>2015-01-02T12:13:51Z</time>
      </trkpt>
      <trkpt lat="43.8984" lon="5.12589">
        <ele>244</ele>
        <time>2015-01-02T12:13:58Z</time>
      </trkpt>
      <trkpt lat="43.89844" lon="5.12568">
        <ele>245</ele>
        <time>2015-01-02T12:14:03Z</time>
      </trkpt>
      <trkpt lat="43.8986" lon="5.12535">
        <ele>240</ele>
        <time>2015-01-02T12:14:12Z</time>
      </trkpt>
      <trkpt lat="43.89877" lon="5.1249">
        <ele>232</ele>
        <time>2015-01-02T12:14:20Z</time>
      </trkpt>
      <trkpt lat="43.89888" lon="5.12463">
        <ele>233</ele>
        <time>2015-01-02T12:14:26Z</time>
      </trkpt>
      <trkpt lat="43.89903" lon="5.12455">
        <ele>230</ele>
        <time>2015-01-02T12:14:32Z</time>
      </trkpt>
      <trkpt lat="43.89908" lon="5.12456">
        <ele>229</ele>
        <time>2015-01-02T12:14:35Z</time>
      </trkpt>
      <trkpt lat="43.89908" lon="5.12456">
        <ele>189.2</ele>
        <time>2015-01-02T12:14:42Z</time>
      </trkpt>
      <trkpt lat="43.89908" lon="5.12456">
        <ele>189.2</ele>
        <time>2015-01-02T12:14:47Z</time>
      </trkpt>
      <trkpt lat="43.89919" lon="5.12452">
        <ele>229</ele>
        <time>2015-01-02T12:14:47Z</time>
      </trkpt>
      <trkpt lat="43.89942" lon="5.12438">
        <ele>233</ele>
        <time>2015-01-02T12:15:01Z</time>
      </trkpt>
      <trkpt lat="43.89952" lon="5.1245">
        <ele>227</ele>
        <time>2015-01-02T12:15:13Z</time>
      </trkpt>
      <trkpt lat="43.89957" lon="5.12441">
        <ele>231</ele>
        <time>2015-01-02T12:15:29Z</time>
      </trkpt>
      <trkpt lat="43.89941" lon="5.12344">
        <ele>227</ele>
        <time>2015-01-02T12:15:38Z</time>
      </trkpt>
      <trkpt lat="43.89925" lon="5.12297">
        <ele>224</ele>
        <time>2015-01-02T12:15:43Z</time>
      </trkpt>
      <trkpt lat="43.89916" lon="5.12252">
        <ele>226</ele>
        <time>2015-01-02T12:15:48Z</time>
      </trkpt>
      <trkpt lat="43.89897" lon="5.12232">
        <ele>220</ele>
        <time>2015-01-02T12:15:53Z</time>
      </trkpt>
      <trkpt lat="43.89882" lon="5.12214">
        <ele>216</ele>
        <time>2015-01-02T12:15:59Z</time>
      </trkpt>
      <trkpt lat="43.89879" lon="5.12198">
        <ele>218</ele>
        <time>2015-01-02T12:16:07Z</time>
      </trkpt>
      <trkpt lat="43.89897" lon="5.12166">
        <ele>218</ele>
        <time>2015-01-02T12:16:16Z</time>
      </trkpt>
      <trkpt lat="43.89916" lon="5.12157">
        <ele>218</ele>
        <time>2015-01-02T12:16:24Z</time>
      </trkpt>
      <trkpt lat="43.89932" lon="5.1215">
        <ele>218</ele>
        <time>2015-01-02T12:16:31Z</time>
      </trkpt>
      <trkpt lat="43.89938" lon="5.12147">
        <ele>220</ele>
        <time>2015-01-02T12:16:34Z</time>
      </trkpt>
      <trkpt lat="43.89959" lon="5.1214">
        <ele>221</ele>
        <time>2015-01-02T12:16:44Z</time>
      </trkpt>
      <trkpt lat="43.89976" lon="5.12143">
        <ele>220</ele>
        <time>2015-01-02T12:16:53Z</time>
      </trkpt>
      <trkpt lat="43.89996" lon="5.12146">
        <ele>221</ele>
        <time>2015-01-02T12:17:02Z</time>
      </trkpt>
      <trkpt lat="43.90017" lon="5.12138">
        <ele>222</ele>
        <time>2015-01-02T12:17:12Z</time>
      </trkpt>
      <trkpt lat="43.90022" lon="5.12109">
        <ele>222</ele>
        <time>2015-01-02T12:17:22Z</time>
      </trkpt>
      <trkpt lat="43.90029" lon="5.12099">
        <ele>224</ele>
        <time>2015-01-02T12:17:29Z</time>
      </trkpt>
      <trkpt lat="43.90031" lon="5.12083">
        <ele>225</ele>
        <time>2015-01-02T12:17:37Z</time>
      </trkpt>
      <trkpt lat="43.90028" lon="5.12077">
        <ele>221</ele>
        <time>2015-01-02T12:17:41Z</time>
      </trkpt>
      <trkpt lat="43.90028" lon="5.12077">
        <ele>179.2</ele>
        <time>2015-01-02T12:17:48Z</time>
      </trkpt>
      <trkpt lat="43.90028" lon="5.12077">
        <ele>179.2</ele>
        <time>2015-01-02T12:17:55Z</time>
      </trkpt>
      <trkpt lat="43.9003" lon="5.12065">
        <ele>225</ele>
        <time>2015-01-02T12:17:55Z</time>
      </trkpt>
      <trkpt lat="43.9003" lon="5.12065">
        <ele>225</ele>
        <time>2015-01-02T12:18:03Z</time>
      </trkpt>
      <trkpt lat="43.9003" lon="5.12065">
        <ele>179.9</ele>
        <time>2015-01-02T12:18:03Z</time>
      </trkpt>
      <trkpt lat="43.9003" lon="5.12065">
        <ele>179.9</ele>
        <time>2015-01-02T12:18:28Z</time>
      </trkpt>
      <trkpt lat="43.90038" lon="5.12054">
        <ele>226</ele>
        <time>2015-01-02T12:18:28Z</time>
      </trkpt>
      <trkpt lat="43.90027" lon="5.12036">
        <ele>224</ele>
        <time>2015-01-02T12:18:40Z</time>
      </trkpt>
      <trkpt lat="43.90027" lon="5.12036">
        <ele>180.6</ele>
        <time>2015-01-02T12:18:48Z</time>
      </trkpt>
      <trkpt lat="43.90027" lon="5.12036">
        <ele>180.6</ele>
        <time>2015-01-02T12:20:21Z</time>
      </trkpt>
      <trkpt lat="43.9001" lon="5.12004">
        <ele>226</ele>
        <time>2015-01-02T12:20:21Z</time>
      </trkpt>
      <trkpt lat="43.90005" lon="5.11991">
        <ele>225</ele>
        <time>2015-01-02T12:20:34Z</time>
      </trkpt>
      <trkpt lat="43.90003" lon="5.11984">
        <ele>227</ele>
        <time>2015-01-02T12:20:38Z</time>
      </trkpt>
      <trkpt lat="43.90003" lon="5.11984">
        <ele>177.1</ele>
        <time>2015-01-02T12:20:47Z</time>
      </trkpt>
      <trkpt lat="43.90003" lon="5.11984">
        <ele>177.1</ele>
        <time>2015-01-02T12:21:52Z</time>
      </trkpt>
      <trkpt lat="43.90029" lon="5.1199">
        <ele>225</ele>
        <time>2015-01-02T12:25:28Z</time>
      </trkpt>
      <trkpt lat="43.90063" lon="5.1197">
        <ele>222</ele>
        <time>2015-01-02T12:25:34Z</time>
      </trkpt>
      <trkpt lat="43.9009" lon="5.11952">
        <ele>218</ele>
        <time>2015-01-02T12:25:40Z</time>
      </trkpt>
      <trkpt lat="43.90103" lon="5.11936">
        <ele>220</ele>
        <time>2015-01-02T12:25:49Z</time>
      </trkpt>
      <trkpt lat="43.90096" lon="5.11907">
        <ele>211</ele>
        <time>2015-01-02T12:26:04Z</time>
      </trkpt>
      <trkpt lat="43.90076" lon="5.11859">
        <ele>209</ele>
        <time>2015-01-02T12:26:11Z</time>
      </trkpt>
      <trkpt lat="43.90085" lon="5.11836">
        <ele>211</ele>
        <time>2015-01-02T12:26:17Z</time>
      </trkpt>
      <trkpt lat="43.90096" lon="5.11825">
        <ele>216</ele>
        <time>2015-01-02T12:26:23Z</time>
      </trkpt>
      <trkpt lat="43.90112" lon="5.11808">
        <ele>216</ele>
        <time>2015-01-02T12:26:33Z</time>
      </trkpt>
      <trkpt lat="43.90123" lon="5.11783">
        <ele>217</ele>
        <time>2015-01-02T12:26:42Z</time>
      </trkpt>
      <trkpt lat="43.90129" lon="5.11766">
        <ele>217</ele>
        <time>2015-01-02T12:26:48Z</time>
      </trkpt>
      <trkpt lat="43.90135" lon="5.1175">
        <ele>217</ele>
        <time>2015-01-02T12:26:54Z</time>
      </trkpt>
      <trkpt lat="43.90135" lon="5.1175">
        <ele>167</ele>
        <time>2015-01-02T12:27:01Z</time>
      </trkpt>
      <trkpt lat="43.90135" lon="5.1175">
        <ele>167</ele>
        <time>2015-01-02T12:27:10Z</time>
      </trkpt>
      <trkpt lat="43.90141" lon="5.11766">
        <ele>216</ele>
        <time>2015-01-02T12:27:10Z</time>
      </trkpt>
      <trkpt lat="43.90149" lon="5.11794">
        <ele>218</ele>
        <time>2015-01-02T12:27:20Z</time>
      </trkpt>
      <trkpt lat="43.90154" lon="5.11811">
        <ele>217</ele>
        <time>2015-01-02T12:27:25Z</time>
      </trkpt>
      <trkpt lat="43.90162" lon="5.11826">
        <ele>217</ele>
        <time>2015-01-02T12:27:30Z</time>
      </trkpt>
      <trkpt lat="43.90172" lon="5.11835">
        <ele>216</ele>
        <time>2015-01-02T12:27:35Z</time>
      </trkpt>
      <trkpt lat="43.90183" lon="5.11849">
        <ele>216</ele>
        <time>2015-01-02T12:27:42Z</time>
      </trkpt>
      <trkpt lat="43.90194" lon="5.11863">
        <ele>217</ele>
        <time>2015-01-02T12:27:48Z</time>
      </trkpt>
      <trkpt lat="43.90207" lon="5.11875">
        <ele>216</ele>
        <time>2015-01-02T12:27:55Z</time>
      </trkpt>
      <trkpt lat="43.90219" lon="5.11903">
        <ele>219</ele>
        <time>2015-01-02T12:28:05Z</time>
      </trkpt>
      <trkpt lat="43.90229" lon="5.11923">
        <ele>221</ele>
        <time>2015-01-02T12:28:17Z</time>
      </trkpt>
      <trkpt lat="43.90239" lon="5.11912">
        <ele>221</ele>
        <time>2015-01-02T12:28:27Z</time>
      </trkpt>
      <trkpt lat="43.90246" lon="5.11865">
        <ele>221</ele>
        <time>2015-01-02T12:28:36Z</time>
      </trkpt>
      <trkpt lat="43.90247" lon="5.11837">
        <ele>216</ele>
        <time>2015-01-02T12:28:41Z</time>
      </trkpt>
      <trkpt lat="43.90246" lon="5.11817">
        <ele>213</ele>
        <time>2015-01-02T12:28:45Z</time>
      </trkpt>
      <trkpt lat="43.90246" lon="5.11817">
        <ele>165.1</ele>
        <time>2015-01-02T12:28:51Z</time>
      </trkpt>
      <trkpt lat="43.90246" lon="5.11817">
        <ele>165.1</ele>
        <time>2015-01-02T12:28:58Z</time>
      </trkpt>
      <trkpt lat="43.90245" lon="5.11814">
        <ele>209</ele>
        <time>2015-01-02T12:28:58Z</time>
      </trkpt>
      <trkpt lat="43.90237" lon="5.11754">
        <ele>207</ele>
        <time>2015-01-02T12:29:18Z</time>
      </trkpt>
      <trkpt lat="43.90253" lon="5.11734">
        <ele>211</ele>
        <time>2015-01-02T12:29:34Z</time>
      </trkpt>
      <trkpt lat="43.90258" lon="5.11733">
        <ele>212</ele>
        <time>2015-01-02T12:29:38Z</time>
      </trkpt>
      <trkpt lat="43.90258" lon="5.11733">
        <ele>164.4</ele>
        <time>2015-01-02T12:29:45Z</time>
      </trkpt>
      <trkpt lat="43.90258" lon="5.11733">
        <ele>164.4</ele>
        <time>2015-01-02T12:30:02Z</time>
      </trkpt>
      <trkpt lat="43.90261" lon="5.11708">
        <ele>219</ele>
        <time>2015-01-02T12:30:02Z</time>
      </trkpt>
      <trkpt lat="43.90259" lon="5.11682">
        <ele>214</ele>
        <time>2015-01-02T12:30:15Z</time>
      </trkpt>
      <trkpt lat="43.90244" lon="5.1164">
        <ele>208</ele>
        <time>2015-01-02T12:30:28Z</time>
      </trkpt>
      <trkpt lat="43.90238" lon="5.11612">
        <ele>208</ele>
        <time>2015-01-02T12:30:35Z</time>
      </trkpt>
      <trkpt lat="43.90234" lon="5.11602">
        <ele>207</ele>
        <time>2015-01-02T12:30:38Z</time>
      </trkpt>
      <trkpt lat="43.90234" lon="5.11602">
        <ele>161</ele>
        <time>2015-01-02T12:30:43Z</time>
      </trkpt>
      <trkpt lat="43.90234" lon="5.11602">
        <ele>161</ele>
        <time>2015-01-02T12:30:47Z</time>
      </trkpt>
      <trkpt lat="43.9023" lon="5.11595">
        <ele>205</ele>
        <time>2015-01-02T12:30:47Z</time>
      </trkpt>
      <trkpt lat="43.90228" lon="5.11553">
        <ele>198</ele>
        <time>2015-01-02T12:30:57Z</time>
      </trkpt>
      <trkpt lat="43.90227" lon="5.11527">
        <ele>199</ele>
        <time>2015-01-02T12:31:02Z</time>
      </trkpt>
      <trkpt lat="43.90227" lon="5.115">
        <ele>199</ele>
        <time>2015-01-02T12:31:09Z</time>
      </trkpt>
      <trkpt lat="43.90239" lon="5.11487">
        <ele>197</ele>
        <time>2015-01-02T12:31:15Z</time>
      </trkpt>
      <trkpt lat="43.90239" lon="5.11487">
        <ele>151.6</ele>
        <time>2015-01-02T12:31:22Z</time>
      </trkpt>
      <trkpt lat="43.90239" lon="5.11487">
        <ele>151.6</ele>
        <time>2015-01-02T12:31:37Z</time>
      </trkpt>
      <trkpt lat="43.9026" lon="5.11497">
        <ele>196</ele>
        <time>2015-01-02T12:31:37Z</time>
      </trkpt>
      <trkpt lat="43.90275" lon="5.11507">
        <ele>196</ele>
        <time>2015-01-02T12:31:43Z</time>
      </trkpt>
      <trkpt lat="43.90286" lon="5.11513">
        <ele>200</ele>
        <time>2015-01-02T12:31:52Z</time>
      </trkpt>
      <trkpt lat="43.90286" lon="5.11513">
        <ele>200</ele>
        <time>2015-01-02T12:32:00Z</time>
      </trkpt>
      <trkpt lat="43.90286" lon="5.11513">
        <ele>153.4</ele>
        <time>2015-01-02T12:32:00Z</time>
      </trkpt>
      <trkpt lat="43.90286" lon="5.11513">
        <ele>153.4</ele>
        <time>2015-01-02T12:32:10Z</time>
      </trkpt>
      <trkpt lat="43.90301" lon="5.11497">
        <ele>197</ele>
        <time>2015-01-02T12:32:10Z</time>
      </trkpt>
      <trkpt lat="43.90318" lon="5.11485">
        <ele>197</ele>
        <time>2015-01-02T12:32:17Z</time>
      </trkpt>
      <trkpt lat="43.90329" lon="5.11486">
        <ele>200</ele>
        <time>2015-01-02T12:32:24Z</time>
      </trkpt>
      <trkpt lat="43.90355" lon="5.11499">
        <ele>196</ele>
        <time>2015-01-02T12:32:35Z</time>
      </trkpt>
      <trkpt lat="43.90376" lon="5.11507">
        <ele>195</ele>
        <time>2015-01-02T12:32:42Z</time>
      </trkpt>
      <trkpt lat="43.90376" lon="5.11507">
        <ele>195</ele>
        <time>2015-01-02T12:32:47Z</time>
      </trkpt>
      <trkpt lat="43.90376" lon="5.11507">
        <ele>153.1</ele>
        <time>2015-01-02T12:32:47Z</time>
      </trkpt>
      <trkpt lat="43.90376" lon="5.11507">
        <ele>153.1</ele>
        <time>2015-01-02T12:33:31Z</time>
      </trkpt>
      <trkpt lat="43.90395" lon="5.11511">
        <ele>189</ele>
        <time>2015-01-02T12:33:31Z</time>
      </trkpt>
      <trkpt lat="43.90421" lon="5.11518">
        <ele>190</ele>
        <time>2015-01-02T12:33:36Z</time>
      </trkpt>
      <trkpt lat="43.90443" lon="5.11514">
        <ele>187</ele>
        <time>2015-01-02T12:33:49Z</time>
      </trkpt>
      <trkpt lat="43.90462" lon="5.1151">
        <ele>182</ele>
        <time>2015-01-02T12:33:57Z</time>
      </trkpt>
      <trkpt lat="43.90477" lon="5.11508">
        <ele>181</ele>
        <time>2015-01-02T12:34:05Z</time>
      </trkpt>
      <trkpt lat="43.90497" lon="5.11516">
        <ele>180</ele>
        <time>2015-01-02T12:34:12Z</time>
      </trkpt>
      <trkpt lat="43.90515" lon="5.11504">
        <ele>182</ele>
        <time>2015-01-02T12:34:18Z</time>
      </trkpt>
      <trkpt lat="43.90522" lon="5.11487">
        <ele>182</ele>
        <time>2015-01-02T12:34:23Z</time>
      </trkpt>
      <trkpt lat="43.90533" lon="5.11481">
        <ele>183</ele>
        <time>2015-01-02T12:34:28Z</time>
      </trkpt>
      <trkpt lat="43.9055" lon="5.1148">
        <ele>183</ele>
        <time>2015-01-02T12:34:35Z</time>
      </trkpt>
      <trkpt lat="43.90563" lon="5.11475">
        <ele>187</ele>
        <time>2015-01-02T12:34:46Z</time>
      </trkpt>
      <trkpt lat="43.90572" lon="5.11437">
        <ele>182</ele>
        <time>2015-01-02T12:35:03Z</time>
      </trkpt>
      <trkpt lat="43.90578" lon="5.11421">
        <ele>180</ele>
        <time>2015-01-02T12:35:13Z</time>
      </trkpt>
      <trkpt lat="43.90578" lon="5.11421">
        <ele>129.1</ele>
        <time>2015-01-02T12:35:21Z</time>
      </trkpt>
      <trkpt lat="43.90578" lon="5.11421">
        <ele>129.1</ele>
        <time>2015-01-02T12:35:57Z</time>
      </trkpt>
      <trkpt lat="43.90587" lon="5.11442">
        <ele>181</ele>
        <time>2015-01-02T12:38:21Z</time>
      </trkpt>
      <trkpt lat="43.90591" lon="5.11449">
        <ele>181</ele>
        <time>2015-01-02T12:38:24Z</time>
      </trkpt>
      <trkpt lat="43.90591" lon="5.11449">
        <ele>130.5</ele>
        <time>2015-01-02T12:38:31Z</time>
      </trkpt>
      <trkpt lat="43.90591" lon="5.11449">
        <ele>130.5</ele>
        <time>2015-01-02T12:39:09Z</time>
      </trkpt>
      <trkpt lat="43.90598" lon="5.11475">
        <ele>178</ele>
        <time>2015-01-02T12:39:09Z</time>
      </trkpt>
      <trkpt lat="43.90602" lon="5.11502">
        <ele>181</ele>
        <time>2015-01-02T12:39:16Z</time>
      </trkpt>
      <trkpt lat="43.90603" lon="5.1152">
        <ele>182</ele>
        <time>2015-01-02T12:39:20Z</time>
      </trkpt>
      <trkpt lat="43.90622" lon="5.11568">
        <ele>174</ele>
        <time>2015-01-02T12:39:28Z</time>
      </trkpt>
      <trkpt lat="43.90638" lon="5.11597">
        <ele>179</ele>
        <time>2015-01-02T12:39:34Z</time>
      </trkpt>
      <trkpt lat="43.90651" lon="5.11615">
        <ele>179</ele>
        <time>2015-01-02T12:39:41Z</time>
      </trkpt>
      <trkpt lat="43.90658" lon="5.11631">
        <ele>179</ele>
        <time>2015-01-02T12:39:47Z</time>
      </trkpt>
      <trkpt lat="43.90663" lon="5.11648">
        <ele>178</ele>
        <time>2015-01-02T12:39:54Z</time>
      </trkpt>
      <trkpt lat="43.90668" lon="5.11686">
        <ele>177</ele>
        <time>2015-01-02T12:40:04Z</time>
      </trkpt>
      <trkpt lat="43.9067" lon="5.11692">
        <ele>174</ele>
        <time>2015-01-02T12:40:11Z</time>
      </trkpt>
      <trkpt lat="43.9067" lon="5.11692">
        <ele>128.6</ele>
        <time>2015-01-02T12:40:18Z</time>
      </trkpt>
      <trkpt lat="43.9067" lon="5.11692">
        <ele>128.6</ele>
        <time>2015-01-02T12:40:34Z</time>
      </trkpt>
      <trkpt lat="43.90679" lon="5.11675">
        <ele>170</ele>
        <time>2015-01-02T12:40:34Z</time>
      </trkpt>
      <trkpt lat="43.9068" lon="5.11666">
        <ele>172</ele>
        <time>2015-01-02T12:40:37Z</time>
      </trkpt>
      <trkpt lat="43.9068" lon="5.11666">
        <ele>127</ele>
        <time>2015-01-02T12:40:42Z</time>
      </trkpt>
      <trkpt lat="43.9068" lon="5.11666">
        <ele>127</ele>
        <time>2015-01-02T12:41:11Z</time>
      </trkpt>
      <trkpt lat="43.90692" lon="5.11641">
        <ele>170</ele>
        <time>2015-01-02T12:41:11Z</time>
      </trkpt>
      <trkpt lat="43.90693" lon="5.11597">
        <ele>159</ele>
        <time>2015-01-02T12:41:20Z</time>
      </trkpt>
      <trkpt lat="43.90677" lon="5.11573">
        <ele>156</ele>
        <time>2015-01-02T12:41:28Z</time>
      </trkpt>
      <trkpt lat="43.90673" lon="5.11569">
        <ele>158</ele>
        <time>2015-01-02T12:41:35Z</time>
      </trkpt>
      <trkpt lat="43.90673" lon="5.11569">
        <ele>116</ele>
        <time>2015-01-02T12:41:42Z</time>
      </trkpt>
      <trkpt lat="43.90673" lon="5.11569">
        <ele>116</ele>
        <time>2015-01-02T12:42:10Z</time>
      </trkpt>
      <trkpt lat="43.90671" lon="5.11546">
        <ele>158</ele>
        <time>2015-01-02T12:42:10Z</time>
      </trkpt>
      <trkpt lat="43.90676" lon="5.11522">
        <ele>167</ele>
        <time>2015-01-02T12:42:19Z</time>
      </trkpt>
      <trkpt lat="43.90685" lon="5.11503">
        <ele>166</ele>
        <time>2015-01-02T12:42:26Z</time>
      </trkpt>
      <trkpt lat="43.90684" lon="5.11486">
        <ele>161</ele>
        <time>2015-01-02T12:42:34Z</time>
      </trkpt>
      <trkpt lat="43.90703" lon="5.11445">
        <ele>160</ele>
        <time>2015-01-02T12:42:49Z</time>
      </trkpt>
      <trkpt lat="43.90703" lon="5.11425">
        <ele>159</ele>
        <time>2015-01-02T12:42:59Z</time>
      </trkpt>
      <trkpt lat="43.90708" lon="5.11378">
        <ele>157</ele>
        <time>2015-01-02T12:43:13Z</time>
      </trkpt>
      <trkpt lat="43.90712" lon="5.11341">
        <ele>158</ele>
        <time>2015-01-02T12:43:21Z</time>
      </trkpt>
      <trkpt lat="43.90719" lon="5.11315">
        <ele>162</ele>
        <time>2015-01-02T12:43:31Z</time>
      </trkpt>
      <trkpt lat="43.90727" lon="5.11294">
        <ele>159</ele>
        <time>2015-01-02T12:43:40Z</time>
      </trkpt>
      <trkpt lat="43.90727" lon="5.11294">
        <ele>103.6</ele>
        <time>2015-01-02T12:43:47Z</time>
      </trkpt>
      <trkpt lat="43.90727" lon="5.11294">
        <ele>103.6</ele>
        <time>2015-01-02T12:44:03Z</time>
      </trkpt>
      <trkpt lat="43.90732" lon="5.11273">
        <ele>161</ele>
        <time>2015-01-02T12:44:03Z</time>
      </trkpt>
      <trkpt lat="43.9074" lon="5.11251">
        <ele>152</ele>
        <time>2015-01-02T12:44:09Z</time>
      </trkpt>
      <trkpt lat="43.90741" lon="5.11243">
        <ele>153</ele>
        <time>2015-01-02T12:44:14Z</time>
      </trkpt>
      <trkpt lat="43.90741" lon="5.11243">
        <ele>97.5</ele>
        <time>2015-01-02T12:44:19Z</time>
      </trkpt>
      <trkpt lat="43.90741" lon="5.11243">
        <ele>97.5</ele>
        <time>2015-01-02T12:44:42Z</time>
      </trkpt>
      <trkpt lat="43.90758" lon="5.11224">
        <ele>153</ele>
        <time>2015-01-02T12:44:42Z</time>
      </trkpt>
      <trkpt lat="43.90775" lon="5.11204">
        <ele>148</ele>
        <time>2015-01-02T12:44:47Z</time>
      </trkpt>
      <trkpt lat="43.90788" lon="5.11182">
        <ele>142</ele>
        <time>2015-01-02T12:44:53Z</time>
      </trkpt>
      <trkpt lat="43.90796" lon="5.11171">
        <ele>141</ele>
        <time>2015-01-02T12:44:59Z</time>
      </trkpt>
      <trkpt lat="43.90813" lon="5.1115">
        <ele>146</ele>
        <time>2015-01-02T12:45:11Z</time>
      </trkpt>
      <trkpt lat="43.9083" lon="5.11126">
        <ele>147</ele>
        <time>2015-01-02T12:45:19Z</time>
      </trkpt>
      <trkpt lat="43.9084" lon="5.1111">
        <ele>137</ele>
        <time>2015-01-02T12:45:24Z</time>
      </trkpt>
      <trkpt lat="43.9084" lon="5.1111">
        <ele>91.4</ele>
        <time>2015-01-02T12:45:30Z</time>
      </trkpt>
      <trkpt lat="43.9084" lon="5.1111">
        <ele>91.4</ele>
        <time>2015-01-02T12:46:06Z</time>
      </trkpt>
      <trkpt lat="43.90843" lon="5.11086">
        <ele>129</ele>
        <time>2015-01-02T12:46:06Z</time>
      </trkpt>
      <trkpt lat="43.90848" lon="5.11071">
        <ele>133</ele>
        <time>2015-01-02T12:46:14Z</time>
      </trkpt>
      <trkpt lat="43.90848" lon="5.11068">
        <ele>133</ele>
        <time>2015-01-02T12:46:16Z</time>
      </trkpt>
      <trkpt lat="43.90848" lon="5.11068">
        <ele>89.7</ele>
        <time>2015-01-02T12:46:23Z</time>
      </trkpt>
      <trkpt lat="43.90848" lon="5.11068">
        <ele>89.7</ele>
        <time>2015-01-02T12:50:11Z</time>
      </trkpt>
      <trkpt lat="43.90831" lon="5.11063">
        <ele>144</ele>
        <time>2015-01-02T12:50:11Z</time>
      </trkpt>
      <trkpt lat="43.90819" lon="5.11026">
        <ele>143</ele>
        <time>2015-01-02T12:51:43Z</time>
      </trkpt>
      <trkpt lat="43.90827" lon="5.11003">
        <ele>139</ele>
        <time>2015-01-02T12:51:50Z</time>
      </trkpt>
      <trkpt lat="43.90835" lon="5.1098">
        <ele>138</ele>
        <time>2015-01-02T12:51:55Z</time>
      </trkpt>
      <trkpt lat="43.90845" lon="5.10959">
        <ele>141</ele>
        <time>2015-01-02T12:52:02Z</time>
      </trkpt>
      <trkpt lat="43.90847" lon="5.10952">
        <ele>141</ele>
        <time>2015-01-02T12:52:07Z</time>
      </trkpt>
      <trkpt lat="43.90847" lon="5.10952">
        <ele>99.4</ele>
        <time>2015-01-02T12:52:15Z</time>
      </trkpt>
      <trkpt lat="43.90847" lon="5.10952">
        <ele>99.4</ele>
        <time>2015-01-02T12:53:47Z</time>
      </trkpt>
      <trkpt lat="43.90829" lon="5.10976">
        <ele>147</ele>
        <time>2015-01-02T12:53:47Z</time>
      </trkpt>
      <trkpt lat="43.90819" lon="5.10996">
        <ele>150</ele>
        <time>2015-01-02T12:53:58Z</time>
      </trkpt>
      <trkpt lat="43.90804" lon="5.11007">
        <ele>151</ele>
        <time>2015-01-02T12:54:09Z</time>
      </trkpt>
      <trkpt lat="43.90793" lon="5.11028">
        <ele>151</ele>
        <time>2015-01-02T12:54:21Z</time>
      </trkpt>
      <trkpt lat="43.9078" lon="5.11039">
        <ele>153</ele>
        <time>2015-01-02T12:54:35Z</time>
      </trkpt>
      <trkpt lat="43.90765" lon="5.11063">
        <ele>155</ele>
        <time>2015-01-02T12:54:50Z</time>
      </trkpt>
      <trkpt lat="43.90751" lon="5.11083">
        <ele>157</ele>
        <time>2015-01-02T12:55:05Z</time>
      </trkpt>
      <trkpt lat="43.90744" lon="5.11108">
        <ele>157</ele>
        <time>2015-01-02T12:55:15Z</time>
      </trkpt>
      <trkpt lat="43.90728" lon="5.11131">
        <ele>159</ele>
        <time>2015-01-02T12:55:25Z</time>
      </trkpt>
      <trkpt lat="43.90715" lon="5.11146">
        <ele>160</ele>
        <time>2015-01-02T12:55:34Z</time>
      </trkpt>
      <trkpt lat="43.90703" lon="5.11161">
        <ele>164</ele>
        <time>2015-01-02T12:55:43Z</time>
      </trkpt>
      <trkpt lat="43.9069" lon="5.11183">
        <ele>164</ele>
        <time>2015-01-02T12:55:53Z</time>
      </trkpt>
      <trkpt lat="43.90678" lon="5.11201">
        <ele>167</ele>
        <time>2015-01-02T12:56:03Z</time>
      </trkpt>
      <trkpt lat="43.90675" lon="5.11215">
        <ele>165</ele>
        <time>2015-01-02T12:56:11Z</time>
      </trkpt>
      <trkpt lat="43.90666" lon="5.11233">
        <ele>166</ele>
        <time>2015-01-02T12:56:21Z</time>
      </trkpt>
      <trkpt lat="43.90663" lon="5.11261">
        <ele>163</ele>
        <time>2015-01-02T12:56:31Z</time>
      </trkpt>
      <trkpt lat="43.90659" lon="5.11281">
        <ele>161</ele>
        <time>2015-01-02T12:56:38Z</time>
      </trkpt>
      <trkpt lat="43.90655" lon="5.11292">
        <ele>161</ele>
        <time>2015-01-02T12:56:41Z</time>
      </trkpt>
      <trkpt lat="43.90644" lon="5.1131">
        <ele>160</ele>
        <time>2015-01-02T12:56:50Z</time>
      </trkpt>
      <trkpt lat="43.90633" lon="5.11321">
        <ele>163</ele>
        <time>2015-01-02T12:56:59Z</time>
      </trkpt>
      <trkpt lat="43.90623" lon="5.11315">
        <ele>165</ele>
        <time>2015-01-02T12:57:11Z</time>
      </trkpt>
      <trkpt lat="43.90635" lon="5.11332">
        <ele>164</ele>
        <time>2015-01-02T12:57:25Z</time>
      </trkpt>
      <trkpt lat="43.90635" lon="5.11332">
        <ele>164</ele>
        <time>2015-01-02T12:57:31Z</time>
      </trkpt>
      <trkpt lat="43.90635" lon="5.11332">
        <ele>119.4</ele>
        <time>2015-01-02T12:57:31Z</time>
      </trkpt>
      <trkpt lat="43.90635" lon="5.11332">
        <ele>119.4</ele>
        <time>2015-01-02T12:58:16Z</time>
      </trkpt>
      <trkpt lat="43.90637" lon="5.11351">
        <ele>160</ele>
        <time>2015-01-02T12:58:16Z</time>
      </trkpt>
      <trkpt lat="43.90641" lon="5.1137">
        <ele>157</ele>
        <time>2015-01-02T12:58:22Z</time>
      </trkpt>
      <trkpt lat="43.90655" lon="5.11393">
        <ele>154</ele>
        <time>2015-01-02T12:58:31Z</time>
      </trkpt>
      <trkpt lat="43.90659" lon="5.11398">
        <ele>155</ele>
        <time>2015-01-02T12:58:33Z</time>
      </trkpt>
      <trkpt lat="43.90659" lon="5.11398">
        <ele>111.6</ele>
        <time>2015-01-02T12:58:39Z</time>
      </trkpt>
      <trkpt lat="43.90659" lon="5.11398">
        <ele>111.6</ele>
        <time>2015-01-02T12:59:23Z</time>
      </trkpt>
      <trkpt lat="43.90664" lon="5.11423">
        <ele>156</ele>
        <time>2015-01-02T12:59:23Z</time>
      </trkpt>
      <trkpt lat="43.90672" lon="5.11442">
        <ele>153</ele>
        <time>2015-01-02T12:59:35Z</time>
      </trkpt>
      <trkpt lat="43.90688" lon="5.11433">
        <ele>153</ele>
        <time>2015-01-02T12:59:45Z</time>
      </trkpt>
      <trkpt lat="43.90693" lon="5.11407">
        <ele>150</ele>
        <time>2015-01-02T12:59:59Z</time>
      </trkpt>
      <trkpt lat="43.90697" lon="5.11384">
        <ele>147</ele>
        <time>2015-01-02T13:00:10Z</time>
      </trkpt>
      <trkpt lat="43.90692" lon="5.11343">
        <ele>147</ele>
        <time>2015-01-02T13:00:20Z</time>
      </trkpt>
      <trkpt lat="43.90696" lon="5.11322">
        <ele>145</ele>
        <time>2015-01-02T13:00:26Z</time>
      </trkpt>
      <trkpt lat="43.90711" lon="5.11296">
        <ele>144</ele>
        <time>2015-01-02T13:00:35Z</time>
      </trkpt>
      <trkpt lat="43.90715" lon="5.11293">
        <ele>140</ele>
        <time>2015-01-02T13:00:42Z</time>
      </trkpt>
      <trkpt lat="43.90715" lon="5.11293">
        <ele>101.2</ele>
        <time>2015-01-02T13:00:50Z</time>
      </trkpt>
      <trkpt lat="43.90715" lon="5.11293">
        <ele>101.2</ele>
        <time>2015-01-02T13:01:20Z</time>
      </trkpt>
      <trkpt lat="43.90727" lon="5.11268">
        <ele>144</ele>
        <time>2015-01-02T13:01:20Z</time>
      </trkpt>
      <trkpt lat="43.90752" lon="5.11236">
        <ele>145</ele>
        <time>2015-01-02T13:01:28Z</time>
      </trkpt>
      <trkpt lat="43.90775" lon="5.11213">
        <ele>144</ele>
        <time>2015-01-02T13:01:34Z</time>
      </trkpt>
      <trkpt lat="43.90788" lon="5.11181">
        <ele>141</ele>
        <time>2015-01-02T13:01:40Z</time>
      </trkpt>
      <trkpt lat="43.90799" lon="5.11163">
        <ele>138</ele>
        <time>2015-01-02T13:01:47Z</time>
      </trkpt>
      <trkpt lat="43.90805" lon="5.11148">
        <ele>141</ele>
        <time>2015-01-02T13:01:52Z</time>
      </trkpt>
      <trkpt lat="43.90821" lon="5.1113">
        <ele>136</ele>
        <time>2015-01-02T13:01:58Z</time>
      </trkpt>
      <trkpt lat="43.90828" lon="5.11107">
        <ele>128</ele>
        <time>2015-01-02T13:02:03Z</time>
      </trkpt>
      <trkpt lat="43.90829" lon="5.11088">
        <ele>126</ele>
        <time>2015-01-02T13:02:13Z</time>
      </trkpt>
      <trkpt lat="43.90821" lon="5.11052">
        <ele>140</ele>
        <time>2015-01-02T13:03:23Z</time>
      </trkpt>
      <trkpt lat="43.90806" lon="5.11025">
        <ele>150</ele>
        <time>2015-01-02T13:04:18Z</time>
      </trkpt>
      <trkpt lat="43.90818" lon="5.11011">
        <ele>150</ele>
        <time>2015-01-02T13:04:26Z</time>
      </trkpt>
      <trkpt lat="43.90836" lon="5.10967">
        <ele>145</ele>
        <time>2015-01-02T13:04:37Z</time>
      </trkpt>
      <trkpt lat="43.9084" lon="5.10931">
        <ele>146</ele>
        <time>2015-01-02T13:04:44Z</time>
      </trkpt>
      <trkpt lat="43.90814" lon="5.10918">
        <ele>146</ele>
        <time>2015-01-02T13:04:50Z</time>
      </trkpt>
      <trkpt lat="43.90789" lon="5.10917">
        <ele>149</ele>
        <time>2015-01-02T13:04:57Z</time>
      </trkpt>
      <trkpt lat="43.9077" lon="5.109">
        <ele>152</ele>
        <time>2015-01-02T13:05:06Z</time>
      </trkpt>
      <trkpt lat="43.90762" lon="5.10884">
        <ele>152</ele>
        <time>2015-01-02T13:05:14Z</time>
      </trkpt>
      <trkpt lat="43.90749" lon="5.10866">
        <ele>144</ele>
        <time>2015-01-02T13:05:28Z</time>
      </trkpt>
      <trkpt lat="43.90747" lon="5.10852">
        <ele>141</ele>
        <time>2015-01-02T13:05:40Z</time>
      </trkpt>
      <trkpt lat="43.90735" lon="5.10843">
        <ele>145</ele>
        <time>2015-01-02T13:05:48Z</time>
      </trkpt>
      <trkpt lat="43.90722" lon="5.10834">
        <ele>144</ele>
        <time>2015-01-02T13:05:53Z</time>
      </trkpt>
      <trkpt lat="43.90703" lon="5.10832">
        <ele>144</ele>
        <time>2015-01-02T13:06:00Z</time>
      </trkpt>
      <trkpt lat="43.90688" lon="5.10835">
        <ele>143</ele>
        <time>2015-01-02T13:06:05Z</time>
      </trkpt>
      <trkpt lat="43.90665" lon="5.10842">
        <ele>142</ele>
        <time>2015-01-02T13:06:12Z</time>
      </trkpt>
      <trkpt lat="43.90654" lon="5.10846">
        <ele>144</ele>
        <time>2015-01-02T13:06:15Z</time>
      </trkpt>
      <trkpt lat="43.90634" lon="5.10854">
        <ele>143</ele>
        <time>2015-01-02T13:06:21Z</time>
      </trkpt>
      <trkpt lat="43.90608" lon="5.10867">
        <ele>144</ele>
        <time>2015-01-02T13:06:28Z</time>
      </trkpt>
      <trkpt lat="43.90584" lon="5.10876">
        <ele>143</ele>
        <time>2015-01-02T13:06:34Z</time>
      </trkpt>
      <trkpt lat="43.90565" lon="5.10888">
        <ele>144</ele>
        <time>2015-01-02T13:06:39Z</time>
      </trkpt>
      <trkpt lat="43.90545" lon="5.10912">
        <ele>144</ele>
        <time>2015-01-02T13:06:46Z</time>
      </trkpt>
      <trkpt lat="43.90531" lon="5.10935">
        <ele>144</ele>
        <time>2015-01-02T13:06:52Z</time>
      </trkpt>
      <trkpt lat="43.90512" lon="5.10965">
        <ele>143</ele>
        <time>2015-01-02T13:07:00Z</time>
      </trkpt>
      <trkpt lat="43.90496" lon="5.10976">
        <ele>141</ele>
        <time>2015-01-02T13:07:05Z</time>
      </trkpt>
      <trkpt lat="43.9048" lon="5.10993">
        <ele>144</ele>
        <time>2015-01-02T13:07:13Z</time>
      </trkpt>
      <trkpt lat="43.90474" lon="5.10998">
        <ele>143</ele>
        <time>2015-01-02T13:07:16Z</time>
      </trkpt>
      <trkpt lat="43.90474" lon="5.10998">
        <ele>93.9</ele>
        <time>2015-01-02T13:07:22Z</time>
      </trkpt>
      <trkpt lat="43.90474" lon="5.10998">
        <ele>93.9</ele>
        <time>2015-01-02T13:07:36Z</time>
      </trkpt>
      <trkpt lat="43.90464" lon="5.11012">
        <ele>140</ele>
        <time>2015-01-02T13:07:36Z</time>
      </trkpt>
      <trkpt lat="43.90462" lon="5.11035">
        <ele>143</ele>
        <time>2015-01-02T13:07:48Z</time>
      </trkpt>
      <trkpt lat="43.90462" lon="5.11035">
        <ele>143</ele>
        <time>2015-01-02T13:07:55Z</time>
      </trkpt>
      <trkpt lat="43.90462" lon="5.11035">
        <ele>94.8</ele>
        <time>2015-01-02T13:07:55Z</time>
      </trkpt>
      <trkpt lat="43.90462" lon="5.11035">
        <ele>94.8</ele>
        <time>2015-01-02T13:08:11Z</time>
      </trkpt>
      <trkpt lat="43.90468" lon="5.11055">
        <ele>145</ele>
        <time>2015-01-02T13:08:11Z</time>
      </trkpt>
      <trkpt lat="43.90474" lon="5.11065">
        <ele>149</ele>
        <time>2015-01-02T13:08:16Z</time>
      </trkpt>
      <trkpt lat="43.90485" lon="5.11086">
        <ele>145</ele>
        <time>2015-01-02T13:08:23Z</time>
      </trkpt>
      <trkpt lat="43.90497" lon="5.1111">
        <ele>148</ele>
        <time>2015-01-02T13:08:31Z</time>
      </trkpt>
      <trkpt lat="43.90507" lon="5.11134">
        <ele>152</ele>
        <time>2015-01-02T13:08:39Z</time>
      </trkpt>
      <trkpt lat="43.90517" lon="5.11161">
        <ele>160</ele>
        <time>2015-01-02T13:08:50Z</time>
      </trkpt>
      <trkpt lat="43.90523" lon="5.11176">
        <ele>163</ele>
        <time>2015-01-02T13:08:57Z</time>
      </trkpt>
      <trkpt lat="43.90519" lon="5.11195">
        <ele>161</ele>
        <time>2015-01-02T13:09:10Z</time>
      </trkpt>
      <trkpt lat="43.90507" lon="5.11192">
        <ele>160</ele>
        <time>2015-01-02T13:09:21Z</time>
      </trkpt>
      <trkpt lat="43.90497" lon="5.11187">
        <ele>159</ele>
        <time>2015-01-02T13:09:24Z</time>
      </trkpt>
      <trkpt lat="43.90486" lon="5.11182">
        <ele>158</ele>
        <time>2015-01-02T13:09:27Z</time>
      </trkpt>
      <trkpt lat="43.90469" lon="5.11181">
        <ele>158</ele>
        <time>2015-01-02T13:09:31Z</time>
      </trkpt>
      <trkpt lat="43.90445" lon="5.11194">
        <ele>157</ele>
        <time>2015-01-02T13:09:37Z</time>
      </trkpt>
      <trkpt lat="43.90415" lon="5.11199">
        <ele>157</ele>
        <time>2015-01-02T13:09:44Z</time>
      </trkpt>
      <trkpt lat="43.90396" lon="5.11206">
        <ele>153</ele>
        <time>2015-01-02T13:09:49Z</time>
      </trkpt>
      <trkpt lat="43.9037" lon="5.1121">
        <ele>153</ele>
        <time>2015-01-02T13:09:55Z</time>
      </trkpt>
      <trkpt lat="43.90347" lon="5.11205">
        <ele>154</ele>
        <time>2015-01-02T13:10:00Z</time>
      </trkpt>
      <trkpt lat="43.90322" lon="5.11205">
        <ele>155</ele>
        <time>2015-01-02T13:10:06Z</time>
      </trkpt>
      <trkpt lat="43.90308" lon="5.11231">
        <ele>152</ele>
        <time>2015-01-02T13:10:13Z</time>
      </trkpt>
      <trkpt lat="43.90282" lon="5.11214">
        <ele>154</ele>
        <time>2015-01-02T13:10:21Z</time>
      </trkpt>
      <trkpt lat="43.90255" lon="5.11193">
        <ele>155</ele>
        <time>2015-01-02T13:10:27Z</time>
      </trkpt>
      <trkpt lat="43.90233" lon="5.11184">
        <ele>152</ele>
        <time>2015-01-02T13:10:31Z</time>
      </trkpt>
      <trkpt lat="43.90202" lon="5.11172">
        <ele>153</ele>
        <time>2015-01-02T13:10:36Z</time>
      </trkpt>
      <trkpt lat="43.90183" lon="5.11168">
        <ele>152</ele>
        <time>2015-01-02T13:10:39Z</time>
      </trkpt>
      <trkpt lat="43.90165" lon="5.11173">
        <ele>151</ele>
        <time>2015-01-02T13:10:42Z</time>
      </trkpt>
      <trkpt lat="43.90129" lon="5.11171">
        <ele>146</ele>
        <time>2015-01-02T13:10:48Z</time>
      </trkpt>
      <trkpt lat="43.901" lon="5.11154">
        <ele>147</ele>
        <time>2015-01-02T13:10:54Z</time>
      </trkpt>
      <trkpt lat="43.90073" lon="5.11134">
        <ele>147</ele>
        <time>2015-01-02T13:10:59Z</time>
      </trkpt>
      <trkpt lat="43.90044" lon="5.11118">
        <ele>146</ele>
        <time>2015-01-02T13:11:04Z</time>
      </trkpt>
      <trkpt lat="43.90014" lon="5.11107">
        <ele>143</ele>
        <time>2015-01-02T13:11:09Z</time>
      </trkpt>
      <trkpt lat="43.89982" lon="5.11096">
        <ele>144</ele>
        <time>2015-01-02T13:11:15Z</time>
      </trkpt>
      <trkpt lat="43.89952" lon="5.11088">
        <ele>145</ele>
        <time>2015-01-02T13:11:22Z</time>
      </trkpt>
      <trkpt lat="43.89944" lon="5.11095">
        <ele>145</ele>
        <time>2015-01-02T13:11:25Z</time>
      </trkpt>
      <trkpt lat="43.89944" lon="5.11095">
        <ele>96.6</ele>
        <time>2015-01-02T13:11:30Z</time>
      </trkpt>
      <trkpt lat="43.89944" lon="5.11095">
        <ele>96.6</ele>
        <time>2015-01-02T13:14:34Z</time>
      </trkpt>
      <trkpt lat="43.89954" lon="5.11114">
        <ele>145</ele>
        <time>2015-01-02T13:14:34Z</time>
      </trkpt>
      <trkpt lat="43.8996" lon="5.11125">
        <ele>145</ele>
        <time>2015-01-02T13:14:39Z</time>
      </trkpt>
      <trkpt lat="43.89969" lon="5.11144">
        <ele>148</ele>
        <time>2015-01-02T13:14:49Z</time>
      </trkpt>
      <trkpt lat="43.89984" lon="5.11154">
        <ele>153</ele>
        <time>2015-01-02T13:15:02Z</time>
      </trkpt>
      <trkpt lat="43.89998" lon="5.11162">
        <ele>155</ele>
        <time>2015-01-02T13:15:14Z</time>
      </trkpt>
      <trkpt lat="43.89998" lon="5.11162">
        <ele>155</ele>
        <time>2015-01-02T13:15:21Z</time>
      </trkpt>
      <trkpt lat="43.89998" lon="5.11162">
        <ele>106.9</ele>
        <time>2015-01-02T13:15:21Z</time>
      </trkpt>
      <trkpt lat="43.89998" lon="5.11162">
        <ele>106.9</ele>
        <time>2015-01-02T13:16:45Z</time>
      </trkpt>
      <trkpt lat="43.89985" lon="5.11159">
        <ele>157</ele>
        <time>2015-01-02T13:16:45Z</time>
      </trkpt>
      <trkpt lat="43.89973" lon="5.11151">
        <ele>152</ele>
        <time>2015-01-02T13:16:54Z</time>
      </trkpt>
      <trkpt lat="43.89965" lon="5.11125">
        <ele>150</ele>
        <time>2015-01-02T13:17:10Z</time>
      </trkpt>
      <trkpt lat="43.89952" lon="5.11101">
        <ele>143</ele>
        <time>2015-01-02T13:17:19Z</time>
      </trkpt>
      <trkpt lat="43.89923" lon="5.11092">
        <ele>143</ele>
        <time>2015-01-02T13:17:28Z</time>
      </trkpt>
      <trkpt lat="43.89903" lon="5.11085">
        <ele>145</ele>
        <time>2015-01-02T13:17:35Z</time>
      </trkpt>
      <trkpt lat="43.89885" lon="5.1109">
        <ele>144</ele>
        <time>2015-01-02T13:17:44Z</time>
      </trkpt>
      <trkpt lat="43.8987" lon="5.11094">
        <ele>147</ele>
        <time>2015-01-02T13:17:52Z</time>
      </trkpt>
      <trkpt lat="43.8985" lon="5.11105">
        <ele>147</ele>
        <time>2015-01-02T13:18:02Z</time>
      </trkpt>
      <trkpt lat="43.89844" lon="5.11108">
        <ele>147</ele>
        <time>2015-01-02T13:18:05Z</time>
      </trkpt>
      <trkpt lat="43.89836" lon="5.11111">
        <ele>148</ele>
        <time>2015-01-02T13:18:09Z</time>
      </trkpt>
      <trkpt lat="43.89814" lon="5.11119">
        <ele>149</ele>
        <time>2015-01-02T13:18:19Z</time>
      </trkpt>
      <trkpt lat="43.89797" lon="5.11134">
        <ele>150</ele>
        <time>2015-01-02T13:18:29Z</time>
      </trkpt>
      <trkpt lat="43.89779" lon="5.11146">
        <ele>152</ele>
        <time>2015-01-02T13:18:37Z</time>
      </trkpt>
      <trkpt lat="43.89765" lon="5.11159">
        <ele>154</ele>
        <time>2015-01-02T13:18:44Z</time>
      </trkpt>
      <trkpt lat="43.89744" lon="5.11177">
        <ele>153</ele>
        <time>2015-01-02T13:18:53Z</time>
      </trkpt>
      <trkpt lat="43.89738" lon="5.11181">
        <ele>154</ele>
        <time>2015-01-02T13:18:56Z</time>
      </trkpt>
      <trkpt lat="43.89728" lon="5.11187">
        <ele>155</ele>
        <time>2015-01-02T13:19:01Z</time>
      </trkpt>
      <trkpt lat="43.89709" lon="5.11207">
        <ele>154</ele>
        <time>2015-01-02T13:19:10Z</time>
      </trkpt>
      <trkpt lat="43.89693" lon="5.1123">
        <ele>158</ele>
        <time>2015-01-02T13:19:18Z</time>
      </trkpt>
      <trkpt lat="43.89671" lon="5.11253">
        <ele>160</ele>
        <time>2015-01-02T13:19:26Z</time>
      </trkpt>
      <trkpt lat="43.89653" lon="5.11272">
        <ele>159</ele>
        <time>2015-01-02T13:19:33Z</time>
      </trkpt>
      <trkpt lat="43.89633" lon="5.11285">
        <ele>160</ele>
        <time>2015-01-02T13:19:41Z</time>
      </trkpt>
      <trkpt lat="43.89606" lon="5.11292">
        <ele>161</ele>
        <time>2015-01-02T13:19:51Z</time>
      </trkpt>
      <trkpt lat="43.89582" lon="5.11313">
        <ele>160</ele>
        <time>2015-01-02T13:20:02Z</time>
      </trkpt>
      <trkpt lat="43.89557" lon="5.11323">
        <ele>161</ele>
        <time>2015-01-02T13:20:10Z</time>
      </trkpt>
      <trkpt lat="43.89534" lon="5.11328">
        <ele>160</ele>
        <time>2015-01-02T13:20:16Z</time>
      </trkpt>
      <trkpt lat="43.89506" lon="5.1133">
        <ele>162</ele>
        <time>2015-01-02T13:20:22Z</time>
      </trkpt>
      <trkpt lat="43.89477" lon="5.11342">
        <ele>164</ele>
        <time>2015-01-02T13:20:28Z</time>
      </trkpt>
      <trkpt lat="43.89448" lon="5.1136">
        <ele>162</ele>
        <time>2015-01-02T13:20:35Z</time>
      </trkpt>
      <trkpt lat="43.8943" lon="5.11367">
        <ele>162</ele>
        <time>2015-01-02T13:20:40Z</time>
      </trkpt>
      <trkpt lat="43.89404" lon="5.11363">
        <ele>162</ele>
        <time>2015-01-02T13:20:48Z</time>
      </trkpt>
      <trkpt lat="43.89374" lon="5.11369">
        <ele>163</ele>
        <time>2015-01-02T13:20:55Z</time>
      </trkpt>
      <trkpt lat="43.89357" lon="5.11381">
        <ele>165</ele>
        <time>2015-01-02T13:21:00Z</time>
      </trkpt>
      <trkpt lat="43.89339" lon="5.11397">
        <ele>165</ele>
        <time>2015-01-02T13:21:06Z</time>
      </trkpt>
      <trkpt lat="43.89319" lon="5.11414">
        <ele>165</ele>
        <time>2015-01-02T13:21:12Z</time>
      </trkpt>
      <trkpt lat="43.89302" lon="5.11426">
        <ele>163</ele>
        <time>2015-01-02T13:21:17Z</time>
      </trkpt>
      <trkpt lat="43.89281" lon="5.11432">
        <ele>166</ele>
        <time>2015-01-02T13:21:22Z</time>
      </trkpt>
      <trkpt lat="43.89268" lon="5.11435">
        <ele>169</ele>
        <time>2015-01-02T13:21:28Z</time>
      </trkpt>
      <trkpt lat="43.89237" lon="5.11408">
        <ele>170</ele>
        <time>2015-01-02T13:21:37Z</time>
      </trkpt>
      <trkpt lat="43.89217" lon="5.11387">
        <ele>163</ele>
        <time>2015-01-02T13:21:43Z</time>
      </trkpt>
      <trkpt lat="43.89211" lon="5.11374">
        <ele>164</ele>
        <time>2015-01-02T13:21:49Z</time>
      </trkpt>
      <trkpt lat="43.89211" lon="5.11374">
        <ele>114.5</ele>
        <time>2015-01-02T13:21:55Z</time>
      </trkpt>
      <trkpt lat="43.89211" lon="5.11374">
        <ele>114.5</ele>
        <time>2015-01-02T13:32:23Z</time>
      </trkpt>
    </trkseg>
  </trk>
</gpx>